<?xml version="1.0" encoding="UTF-8" standalone="no" ?>
<gpx xmlns="http://www.topografix.com/GPX/1/1" xmlns:xsi="http://www.w3.org/2001/XMLSchema-instance" xsi:schemaLocation="http://www.topografix.com/GPX/1/1 http://www.topografix.com/GPX/1/1/gpx.xsd" version="1.1" creator="VisuGPX - https://www.visugpx.com">
  <metadata>
    <name>grand brouis</name>
    <desc><![CDATA[de la bastide vers le col de clavel puis piste et au croisement des combes prendre sentier à gauche voir petit cairn]]></desc>
  </metadata>
  <trk>
    <name><![CDATA[9 oct. 2017]]></name>
    <trkseg>
      <trkpt lat="43.73704" lon="6.62526">
        <ele>972</ele>
        <time>2017-10-09T07:07:22Z</time>
      </trkpt>
      <trkpt lat="43.73704" lon="6.62526">
        <ele>972</ele>
        <time>2017-10-09T07:07:23Z</time>
      </trkpt>
      <trkpt lat="43.73708" lon="6.62534">
        <ele>974</ele>
        <time>2017-10-09T07:07:34Z</time>
      </trkpt>
      <trkpt lat="43.73711" lon="6.62542">
        <ele>973</ele>
        <time>2017-10-09T07:07:43Z</time>
      </trkpt>
      <trkpt lat="43.73718" lon="6.62546">
        <ele>973</ele>
        <time>2017-10-09T07:07:48Z</time>
      </trkpt>
      <trkpt lat="43.73728" lon="6.62558">
        <ele>971</ele>
        <time>2017-10-09T07:07:59Z</time>
      </trkpt>
      <trkpt lat="43.73742" lon="6.62556">
        <ele>973</ele>
        <time>2017-10-09T07:08:09Z</time>
      </trkpt>
      <trkpt lat="43.73751" lon="6.62559">
        <ele>977</ele>
        <time>2017-10-09T07:08:16Z</time>
      </trkpt>
      <trkpt lat="43.7376" lon="6.62565">
        <ele>976</ele>
        <time>2017-10-09T07:08:26Z</time>
      </trkpt>
      <trkpt lat="43.73768" lon="6.62571">
        <ele>974</ele>
        <time>2017-10-09T07:08:34Z</time>
      </trkpt>
      <trkpt lat="43.73787" lon="6.62583">
        <ele>967</ele>
        <time>2017-10-09T07:08:55Z</time>
      </trkpt>
      <trkpt lat="43.73793" lon="6.62583">
        <ele>966</ele>
        <time>2017-10-09T07:09:00Z</time>
      </trkpt>
      <trkpt lat="43.73812" lon="6.62591">
        <ele>966</ele>
        <time>2017-10-09T07:09:14Z</time>
      </trkpt>
      <trkpt lat="43.73825" lon="6.626">
        <ele>969</ele>
        <time>2017-10-09T07:09:38Z</time>
      </trkpt>
      <trkpt lat="43.73832" lon="6.62606">
        <ele>971</ele>
        <time>2017-10-09T07:09:52Z</time>
      </trkpt>
      <trkpt lat="43.73841" lon="6.62607">
        <ele>974</ele>
        <time>2017-10-09T07:10:00Z</time>
      </trkpt>
      <trkpt lat="43.73847" lon="6.62611">
        <ele>975</ele>
        <time>2017-10-09T07:10:05Z</time>
      </trkpt>
      <trkpt lat="43.73855" lon="6.62613">
        <ele>975</ele>
        <time>2017-10-09T07:10:11Z</time>
      </trkpt>
      <trkpt lat="43.7387" lon="6.62618">
        <ele>973</ele>
        <time>2017-10-09T07:10:27Z</time>
      </trkpt>
      <trkpt lat="43.73888" lon="6.62631">
        <ele>979</ele>
        <time>2017-10-09T07:10:44Z</time>
      </trkpt>
      <trkpt lat="43.73921" lon="6.62626">
        <ele>975</ele>
        <time>2017-10-09T07:11:08Z</time>
      </trkpt>
      <trkpt lat="43.73947" lon="6.62641">
        <ele>976</ele>
        <time>2017-10-09T07:11:36Z</time>
      </trkpt>
      <trkpt lat="43.73957" lon="6.62639">
        <ele>973</ele>
        <time>2017-10-09T07:11:46Z</time>
      </trkpt>
      <trkpt lat="43.73971" lon="6.62641">
        <ele>970</ele>
        <time>2017-10-09T07:12:22Z</time>
      </trkpt>
      <trkpt lat="43.73981" lon="6.62648">
        <ele>970</ele>
        <time>2017-10-09T07:12:28Z</time>
      </trkpt>
      <trkpt lat="43.7399" lon="6.62648">
        <ele>971</ele>
        <time>2017-10-09T07:12:36Z</time>
      </trkpt>
      <trkpt lat="43.74" lon="6.62649">
        <ele>973</ele>
        <time>2017-10-09T07:12:49Z</time>
      </trkpt>
      <trkpt lat="43.74008" lon="6.62653">
        <ele>973</ele>
        <time>2017-10-09T07:12:56Z</time>
      </trkpt>
      <trkpt lat="43.74015" lon="6.62649">
        <ele>974</ele>
        <time>2017-10-09T07:13:00Z</time>
      </trkpt>
      <trkpt lat="43.74042" lon="6.62644">
        <ele>976</ele>
        <time>2017-10-09T07:13:22Z</time>
      </trkpt>
      <trkpt lat="43.74052" lon="6.6265">
        <ele>976</ele>
        <time>2017-10-09T07:13:34Z</time>
      </trkpt>
      <trkpt lat="43.74062" lon="6.62652">
        <ele>976</ele>
        <time>2017-10-09T07:13:43Z</time>
      </trkpt>
      <trkpt lat="43.74084" lon="6.62653">
        <ele>978</ele>
        <time>2017-10-09T07:14:02Z</time>
      </trkpt>
      <trkpt lat="43.74094" lon="6.62654">
        <ele>977</ele>
        <time>2017-10-09T07:14:09Z</time>
      </trkpt>
      <trkpt lat="43.7412" lon="6.6266">
        <ele>983</ele>
        <time>2017-10-09T07:14:38Z</time>
      </trkpt>
      <trkpt lat="43.74128" lon="6.62657">
        <ele>983</ele>
        <time>2017-10-09T07:14:45Z</time>
      </trkpt>
      <trkpt lat="43.74135" lon="6.62654">
        <ele>979</ele>
        <time>2017-10-09T07:14:51Z</time>
      </trkpt>
      <trkpt lat="43.74147" lon="6.62651">
        <ele>977</ele>
        <time>2017-10-09T07:14:57Z</time>
      </trkpt>
      <trkpt lat="43.74156" lon="6.62657">
        <ele>971</ele>
        <time>2017-10-09T07:15:03Z</time>
      </trkpt>
      <trkpt lat="43.74166" lon="6.62659">
        <ele>973</ele>
        <time>2017-10-09T07:15:12Z</time>
      </trkpt>
      <trkpt lat="43.74176" lon="6.62661">
        <ele>979</ele>
        <time>2017-10-09T07:15:23Z</time>
      </trkpt>
      <trkpt lat="43.74185" lon="6.62663">
        <ele>978</ele>
        <time>2017-10-09T07:15:32Z</time>
      </trkpt>
      <trkpt lat="43.74194" lon="6.62665">
        <ele>979</ele>
        <time>2017-10-09T07:15:42Z</time>
      </trkpt>
      <trkpt lat="43.74205" lon="6.62664">
        <ele>978</ele>
        <time>2017-10-09T07:15:49Z</time>
      </trkpt>
      <trkpt lat="43.74214" lon="6.62668">
        <ele>979</ele>
        <time>2017-10-09T07:15:55Z</time>
      </trkpt>
      <trkpt lat="43.74222" lon="6.62667">
        <ele>981</ele>
        <time>2017-10-09T07:16:08Z</time>
      </trkpt>
      <trkpt lat="43.74235" lon="6.62668">
        <ele>981</ele>
        <time>2017-10-09T07:16:19Z</time>
      </trkpt>
      <trkpt lat="43.74244" lon="6.62665">
        <ele>985</ele>
        <time>2017-10-09T07:16:31Z</time>
      </trkpt>
      <trkpt lat="43.7426" lon="6.62669">
        <ele>984</ele>
        <time>2017-10-09T07:16:43Z</time>
      </trkpt>
      <trkpt lat="43.74271" lon="6.62673">
        <ele>984</ele>
        <time>2017-10-09T07:16:51Z</time>
      </trkpt>
      <trkpt lat="43.74275" lon="6.6268">
        <ele>983</ele>
        <time>2017-10-09T07:17:00Z</time>
      </trkpt>
      <trkpt lat="43.74284" lon="6.62677">
        <ele>982</ele>
        <time>2017-10-09T07:17:11Z</time>
      </trkpt>
      <trkpt lat="43.743" lon="6.62676">
        <ele>981</ele>
        <time>2017-10-09T07:17:20Z</time>
      </trkpt>
      <trkpt lat="43.74322" lon="6.62674">
        <ele>977</ele>
        <time>2017-10-09T07:17:39Z</time>
      </trkpt>
      <trkpt lat="43.7432" lon="6.62681">
        <ele>980</ele>
        <time>2017-10-09T07:18:19Z</time>
      </trkpt>
      <trkpt lat="43.74316" lon="6.62677">
        <ele>986</ele>
        <time>2017-10-09T07:20:22Z</time>
      </trkpt>
      <trkpt lat="43.74322" lon="6.62672">
        <ele>985</ele>
        <time>2017-10-09T07:20:28Z</time>
      </trkpt>
      <trkpt lat="43.7435" lon="6.62682">
        <ele>984</ele>
        <time>2017-10-09T07:20:43Z</time>
      </trkpt>
      <trkpt lat="43.74359" lon="6.62684">
        <ele>981</ele>
        <time>2017-10-09T07:20:53Z</time>
      </trkpt>
      <trkpt lat="43.74369" lon="6.62683">
        <ele>980</ele>
        <time>2017-10-09T07:21:01Z</time>
      </trkpt>
      <trkpt lat="43.74377" lon="6.62687">
        <ele>981</ele>
        <time>2017-10-09T07:21:08Z</time>
      </trkpt>
      <trkpt lat="43.74383" lon="6.62688">
        <ele>986</ele>
        <time>2017-10-09T07:21:14Z</time>
      </trkpt>
      <trkpt lat="43.74389" lon="6.62691">
        <ele>988</ele>
        <time>2017-10-09T07:21:18Z</time>
      </trkpt>
      <trkpt lat="43.74394" lon="6.62696">
        <ele>991</ele>
        <time>2017-10-09T07:21:23Z</time>
      </trkpt>
      <trkpt lat="43.74395" lon="6.62695">
        <ele>997</ele>
        <time>2017-10-09T07:22:03Z</time>
      </trkpt>
      <trkpt lat="43.74416" lon="6.62705">
        <ele>1003</ele>
        <time>2017-10-09T07:22:15Z</time>
      </trkpt>
      <trkpt lat="43.74422" lon="6.62705">
        <ele>1002</ele>
        <time>2017-10-09T07:22:20Z</time>
      </trkpt>
      <trkpt lat="43.7443" lon="6.62706">
        <ele>1000</ele>
        <time>2017-10-09T07:22:25Z</time>
      </trkpt>
      <trkpt lat="43.74437" lon="6.62708">
        <ele>1000</ele>
        <time>2017-10-09T07:22:29Z</time>
      </trkpt>
      <trkpt lat="43.74449" lon="6.62715">
        <ele>999</ele>
        <time>2017-10-09T07:22:36Z</time>
      </trkpt>
      <trkpt lat="43.74457" lon="6.62721">
        <ele>996</ele>
        <time>2017-10-09T07:22:41Z</time>
      </trkpt>
      <trkpt lat="43.74464" lon="6.62729">
        <ele>996</ele>
        <time>2017-10-09T07:22:50Z</time>
      </trkpt>
      <trkpt lat="43.74479" lon="6.62745">
        <ele>1000</ele>
        <time>2017-10-09T07:23:06Z</time>
      </trkpt>
      <trkpt lat="43.74486" lon="6.62747">
        <ele>1000</ele>
        <time>2017-10-09T07:23:24Z</time>
      </trkpt>
      <trkpt lat="43.74493" lon="6.62762">
        <ele>1003</ele>
        <time>2017-10-09T07:23:40Z</time>
      </trkpt>
      <trkpt lat="43.74499" lon="6.62777">
        <ele>1006</ele>
        <time>2017-10-09T07:23:50Z</time>
      </trkpt>
      <trkpt lat="43.74526" lon="6.62787">
        <ele>1005</ele>
        <time>2017-10-09T07:24:24Z</time>
      </trkpt>
      <trkpt lat="43.74539" lon="6.62788">
        <ele>1004</ele>
        <time>2017-10-09T07:24:34Z</time>
      </trkpt>
      <trkpt lat="43.74547" lon="6.62791">
        <ele>1002</ele>
        <time>2017-10-09T07:24:41Z</time>
      </trkpt>
      <trkpt lat="43.74553" lon="6.62788">
        <ele>1009</ele>
        <time>2017-10-09T07:24:50Z</time>
      </trkpt>
      <trkpt lat="43.74559" lon="6.62789">
        <ele>1009</ele>
        <time>2017-10-09T07:24:57Z</time>
      </trkpt>
      <trkpt lat="43.74564" lon="6.62794">
        <ele>1009</ele>
        <time>2017-10-09T07:25:02Z</time>
      </trkpt>
      <trkpt lat="43.74574" lon="6.62794">
        <ele>1008</ele>
        <time>2017-10-09T07:25:13Z</time>
      </trkpt>
      <trkpt lat="43.74582" lon="6.62799">
        <ele>1007</ele>
        <time>2017-10-09T07:25:19Z</time>
      </trkpt>
      <trkpt lat="43.74588" lon="6.62801">
        <ele>1003</ele>
        <time>2017-10-09T07:25:38Z</time>
      </trkpt>
      <trkpt lat="43.74605" lon="6.62802">
        <ele>1004</ele>
        <time>2017-10-09T07:25:52Z</time>
      </trkpt>
      <trkpt lat="43.74611" lon="6.62808">
        <ele>1002</ele>
        <time>2017-10-09T07:26:00Z</time>
      </trkpt>
      <trkpt lat="43.74618" lon="6.6281">
        <ele>1001</ele>
        <time>2017-10-09T07:26:09Z</time>
      </trkpt>
      <trkpt lat="43.74634" lon="6.62814">
        <ele>1002</ele>
        <time>2017-10-09T07:26:23Z</time>
      </trkpt>
      <trkpt lat="43.74644" lon="6.62813">
        <ele>1007</ele>
        <time>2017-10-09T07:26:28Z</time>
      </trkpt>
      <trkpt lat="43.7465" lon="6.62811">
        <ele>1009</ele>
        <time>2017-10-09T07:26:32Z</time>
      </trkpt>
      <trkpt lat="43.74656" lon="6.62805">
        <ele>1006</ele>
        <time>2017-10-09T07:26:39Z</time>
      </trkpt>
      <trkpt lat="43.74662" lon="6.62801">
        <ele>1009</ele>
        <time>2017-10-09T07:26:47Z</time>
      </trkpt>
      <trkpt lat="43.74685" lon="6.62794">
        <ele>1010</ele>
        <time>2017-10-09T07:27:13Z</time>
      </trkpt>
      <trkpt lat="43.74691" lon="6.6279">
        <ele>1013</ele>
        <time>2017-10-09T07:27:34Z</time>
      </trkpt>
      <trkpt lat="43.74696" lon="6.62785">
        <ele>1015</ele>
        <time>2017-10-09T07:27:38Z</time>
      </trkpt>
      <trkpt lat="43.74702" lon="6.62777">
        <ele>1017</ele>
        <time>2017-10-09T07:27:45Z</time>
      </trkpt>
      <trkpt lat="43.7471" lon="6.62761">
        <ele>1011</ele>
        <time>2017-10-09T07:28:02Z</time>
      </trkpt>
      <trkpt lat="43.74722" lon="6.6275">
        <ele>1015</ele>
        <time>2017-10-09T07:28:17Z</time>
      </trkpt>
      <trkpt lat="43.74727" lon="6.62734">
        <ele>1018</ele>
        <time>2017-10-09T07:28:30Z</time>
      </trkpt>
      <trkpt lat="43.7474" lon="6.62698">
        <ele>1020</ele>
        <time>2017-10-09T07:29:02Z</time>
      </trkpt>
      <trkpt lat="43.74758" lon="6.62668">
        <ele>1018</ele>
        <time>2017-10-09T07:29:32Z</time>
      </trkpt>
      <trkpt lat="43.74766" lon="6.62652">
        <ele>1013</ele>
        <time>2017-10-09T07:29:53Z</time>
      </trkpt>
      <trkpt lat="43.74772" lon="6.62637">
        <ele>1019</ele>
        <time>2017-10-09T07:30:04Z</time>
      </trkpt>
      <trkpt lat="43.74785" lon="6.62631">
        <ele>1024</ele>
        <time>2017-10-09T07:30:22Z</time>
      </trkpt>
      <trkpt lat="43.74795" lon="6.62619">
        <ele>1028</ele>
        <time>2017-10-09T07:30:41Z</time>
      </trkpt>
      <trkpt lat="43.74808" lon="6.62613">
        <ele>1026</ele>
        <time>2017-10-09T07:31:03Z</time>
      </trkpt>
      <trkpt lat="43.74819" lon="6.62602">
        <ele>1025</ele>
        <time>2017-10-09T07:31:17Z</time>
      </trkpt>
      <trkpt lat="43.74834" lon="6.62602">
        <ele>1025</ele>
        <time>2017-10-09T07:31:31Z</time>
      </trkpt>
      <trkpt lat="43.74845" lon="6.62592">
        <ele>1031</ele>
        <time>2017-10-09T07:32:08Z</time>
      </trkpt>
      <trkpt lat="43.74867" lon="6.62574">
        <ele>1033</ele>
        <time>2017-10-09T07:32:37Z</time>
      </trkpt>
      <trkpt lat="43.7488" lon="6.62571">
        <ele>1029</ele>
        <time>2017-10-09T07:32:50Z</time>
      </trkpt>
      <trkpt lat="43.74892" lon="6.62563">
        <ele>1030</ele>
        <time>2017-10-09T07:33:08Z</time>
      </trkpt>
      <trkpt lat="43.74901" lon="6.62556">
        <ele>1038</ele>
        <time>2017-10-09T07:33:19Z</time>
      </trkpt>
      <trkpt lat="43.74903" lon="6.62551">
        <ele>1042</ele>
        <time>2017-10-09T07:33:23Z</time>
      </trkpt>
      <trkpt lat="43.74906" lon="6.62546">
        <ele>1043</ele>
        <time>2017-10-09T07:33:27Z</time>
      </trkpt>
      <trkpt lat="43.74913" lon="6.62547">
        <ele>1045</ele>
        <time>2017-10-09T07:33:36Z</time>
      </trkpt>
      <trkpt lat="43.74919" lon="6.62546">
        <ele>1047</ele>
        <time>2017-10-09T07:33:39Z</time>
      </trkpt>
      <trkpt lat="43.74932" lon="6.62541">
        <ele>1051</ele>
        <time>2017-10-09T07:33:54Z</time>
      </trkpt>
      <trkpt lat="43.74939" lon="6.62534">
        <ele>1055</ele>
        <time>2017-10-09T07:34:07Z</time>
      </trkpt>
      <trkpt lat="43.74959" lon="6.62521">
        <ele>1042</ele>
        <time>2017-10-09T07:34:39Z</time>
      </trkpt>
      <trkpt lat="43.74966" lon="6.62515">
        <ele>1022</ele>
        <time>2017-10-09T07:34:49Z</time>
      </trkpt>
      <trkpt lat="43.74972" lon="6.62507">
        <ele>1031</ele>
        <time>2017-10-09T07:34:57Z</time>
      </trkpt>
      <trkpt lat="43.74983" lon="6.62499">
        <ele>1054</ele>
        <time>2017-10-09T07:35:09Z</time>
      </trkpt>
      <trkpt lat="43.74988" lon="6.62498">
        <ele>1048</ele>
        <time>2017-10-09T07:35:17Z</time>
      </trkpt>
      <trkpt lat="43.74999" lon="6.6249">
        <ele>1053</ele>
        <time>2017-10-09T07:35:29Z</time>
      </trkpt>
      <trkpt lat="43.75011" lon="6.62486">
        <ele>1055</ele>
        <time>2017-10-09T07:35:55Z</time>
      </trkpt>
      <trkpt lat="43.75025" lon="6.6248">
        <ele>1063</ele>
        <time>2017-10-09T07:36:12Z</time>
      </trkpt>
      <trkpt lat="43.75039" lon="6.62477">
        <ele>1067</ele>
        <time>2017-10-09T07:36:30Z</time>
      </trkpt>
      <trkpt lat="43.75051" lon="6.6248">
        <ele>1072</ele>
        <time>2017-10-09T07:36:51Z</time>
      </trkpt>
      <trkpt lat="43.75064" lon="6.62472">
        <ele>1074</ele>
        <time>2017-10-09T07:37:20Z</time>
      </trkpt>
      <trkpt lat="43.75078" lon="6.62472">
        <ele>1077</ele>
        <time>2017-10-09T07:37:55Z</time>
      </trkpt>
      <trkpt lat="43.75091" lon="6.6247">
        <ele>1078</ele>
        <time>2017-10-09T07:38:06Z</time>
      </trkpt>
      <trkpt lat="43.751" lon="6.62463">
        <ele>1084</ele>
        <time>2017-10-09T07:38:19Z</time>
      </trkpt>
      <trkpt lat="43.75104" lon="6.62463">
        <ele>1087</ele>
        <time>2017-10-09T07:38:24Z</time>
      </trkpt>
      <trkpt lat="43.75109" lon="6.62462">
        <ele>1089</ele>
        <time>2017-10-09T07:38:29Z</time>
      </trkpt>
      <trkpt lat="43.75116" lon="6.62462">
        <ele>1071</ele>
        <time>2017-10-09T07:38:41Z</time>
      </trkpt>
      <trkpt lat="43.75126" lon="6.62459">
        <ele>1063</ele>
        <time>2017-10-09T07:38:50Z</time>
      </trkpt>
      <trkpt lat="43.75132" lon="6.62467">
        <ele>1055</ele>
        <time>2017-10-09T07:39:02Z</time>
      </trkpt>
      <trkpt lat="43.75136" lon="6.62456">
        <ele>1068</ele>
        <time>2017-10-09T07:39:12Z</time>
      </trkpt>
      <trkpt lat="43.75142" lon="6.62452">
        <ele>1091</ele>
        <time>2017-10-09T07:39:18Z</time>
      </trkpt>
      <trkpt lat="43.75143" lon="6.62445">
        <ele>1073</ele>
        <time>2017-10-09T07:39:28Z</time>
      </trkpt>
      <trkpt lat="43.75148" lon="6.62446">
        <ele>1093</ele>
        <time>2017-10-09T07:40:03Z</time>
      </trkpt>
      <trkpt lat="43.75153" lon="6.62447">
        <ele>1098</ele>
        <time>2017-10-09T07:40:09Z</time>
      </trkpt>
      <trkpt lat="43.75157" lon="6.62447">
        <ele>1100</ele>
        <time>2017-10-09T07:40:15Z</time>
      </trkpt>
      <trkpt lat="43.75164" lon="6.62442">
        <ele>1101</ele>
        <time>2017-10-09T07:40:23Z</time>
      </trkpt>
      <trkpt lat="43.75172" lon="6.62439">
        <ele>1081</ele>
        <time>2017-10-09T07:40:36Z</time>
      </trkpt>
      <trkpt lat="43.75181" lon="6.6244">
        <ele>1089</ele>
        <time>2017-10-09T07:40:47Z</time>
      </trkpt>
      <trkpt lat="43.75184" lon="6.62433">
        <ele>1094</ele>
        <time>2017-10-09T07:40:53Z</time>
      </trkpt>
      <trkpt lat="43.75188" lon="6.62431">
        <ele>1095</ele>
        <time>2017-10-09T07:40:56Z</time>
      </trkpt>
      <trkpt lat="43.75195" lon="6.6243">
        <ele>1100</ele>
        <time>2017-10-09T07:41:06Z</time>
      </trkpt>
      <trkpt lat="43.75201" lon="6.62426">
        <ele>1105</ele>
        <time>2017-10-09T07:41:13Z</time>
      </trkpt>
      <trkpt lat="43.75208" lon="6.62428">
        <ele>1108</ele>
        <time>2017-10-09T07:41:23Z</time>
      </trkpt>
      <trkpt lat="43.75212" lon="6.62423">
        <ele>1108</ele>
        <time>2017-10-09T07:41:29Z</time>
      </trkpt>
      <trkpt lat="43.75217" lon="6.62419">
        <ele>1108</ele>
        <time>2017-10-09T07:41:35Z</time>
      </trkpt>
      <trkpt lat="43.75223" lon="6.6242">
        <ele>1108</ele>
        <time>2017-10-09T07:41:47Z</time>
      </trkpt>
      <trkpt lat="43.75231" lon="6.6242">
        <ele>1109</ele>
        <time>2017-10-09T07:41:54Z</time>
      </trkpt>
      <trkpt lat="43.75234" lon="6.62413">
        <ele>1109</ele>
        <time>2017-10-09T07:42:12Z</time>
      </trkpt>
      <trkpt lat="43.75236" lon="6.62405">
        <ele>1107</ele>
        <time>2017-10-09T07:42:22Z</time>
      </trkpt>
      <trkpt lat="43.75243" lon="6.62399">
        <ele>1104</ele>
        <time>2017-10-09T07:42:34Z</time>
      </trkpt>
      <trkpt lat="43.75249" lon="6.62395">
        <ele>1100</ele>
        <time>2017-10-09T07:42:44Z</time>
      </trkpt>
      <trkpt lat="43.75257" lon="6.62398">
        <ele>1102</ele>
        <time>2017-10-09T07:42:59Z</time>
      </trkpt>
      <trkpt lat="43.75267" lon="6.62396">
        <ele>1107</ele>
        <time>2017-10-09T07:43:12Z</time>
      </trkpt>
      <trkpt lat="43.75291" lon="6.62381">
        <ele>1105</ele>
        <time>2017-10-09T07:43:36Z</time>
      </trkpt>
      <trkpt lat="43.75295" lon="6.62367">
        <ele>1105</ele>
        <time>2017-10-09T07:43:48Z</time>
      </trkpt>
      <trkpt lat="43.7529" lon="6.62363">
        <ele>1112</ele>
        <time>2017-10-09T07:44:48Z</time>
      </trkpt>
      <trkpt lat="43.75281" lon="6.62369">
        <ele>1114</ele>
        <time>2017-10-09T07:44:57Z</time>
      </trkpt>
      <trkpt lat="43.75274" lon="6.62368">
        <ele>1115</ele>
        <time>2017-10-09T07:45:03Z</time>
      </trkpt>
      <trkpt lat="43.75268" lon="6.62364">
        <ele>1113</ele>
        <time>2017-10-09T07:45:09Z</time>
      </trkpt>
      <trkpt lat="43.75254" lon="6.6236">
        <ele>1112</ele>
        <time>2017-10-09T07:45:22Z</time>
      </trkpt>
      <trkpt lat="43.75249" lon="6.6236">
        <ele>1118</ele>
        <time>2017-10-09T07:45:39Z</time>
      </trkpt>
      <trkpt lat="43.75241" lon="6.62358">
        <ele>1123</ele>
        <time>2017-10-09T07:45:47Z</time>
      </trkpt>
      <trkpt lat="43.75232" lon="6.62349">
        <ele>1121</ele>
        <time>2017-10-09T07:45:56Z</time>
      </trkpt>
      <trkpt lat="43.75219" lon="6.62334">
        <ele>1123</ele>
        <time>2017-10-09T07:46:31Z</time>
      </trkpt>
      <trkpt lat="43.75215" lon="6.62331">
        <ele>1123</ele>
        <time>2017-10-09T07:46:38Z</time>
      </trkpt>
      <trkpt lat="43.7521" lon="6.62318">
        <ele>1122</ele>
        <time>2017-10-09T07:46:47Z</time>
      </trkpt>
      <trkpt lat="43.75208" lon="6.62311">
        <ele>1123</ele>
        <time>2017-10-09T07:46:54Z</time>
      </trkpt>
      <trkpt lat="43.75207" lon="6.62299">
        <ele>1124</ele>
        <time>2017-10-09T07:47:11Z</time>
      </trkpt>
      <trkpt lat="43.75204" lon="6.6229">
        <ele>1124</ele>
        <time>2017-10-09T07:47:19Z</time>
      </trkpt>
      <trkpt lat="43.75197" lon="6.62287">
        <ele>1123</ele>
        <time>2017-10-09T07:47:23Z</time>
      </trkpt>
      <trkpt lat="43.75194" lon="6.62278">
        <ele>1121</ele>
        <time>2017-10-09T07:47:28Z</time>
      </trkpt>
      <trkpt lat="43.75184" lon="6.62265">
        <ele>1124</ele>
        <time>2017-10-09T07:47:54Z</time>
      </trkpt>
      <trkpt lat="43.75171" lon="6.62255">
        <ele>1127</ele>
        <time>2017-10-09T07:48:10Z</time>
      </trkpt>
      <trkpt lat="43.75162" lon="6.62243">
        <ele>1128</ele>
        <time>2017-10-09T07:48:58Z</time>
      </trkpt>
      <trkpt lat="43.75154" lon="6.62238">
        <ele>1128</ele>
        <time>2017-10-09T07:49:06Z</time>
      </trkpt>
      <trkpt lat="43.75143" lon="6.62234">
        <ele>1132</ele>
        <time>2017-10-09T07:49:25Z</time>
      </trkpt>
      <trkpt lat="43.7514" lon="6.62231">
        <ele>1133</ele>
        <time>2017-10-09T07:49:30Z</time>
      </trkpt>
      <trkpt lat="43.75136" lon="6.62227">
        <ele>1133</ele>
        <time>2017-10-09T07:49:36Z</time>
      </trkpt>
      <trkpt lat="43.75126" lon="6.62221">
        <ele>1133</ele>
        <time>2017-10-09T07:49:49Z</time>
      </trkpt>
      <trkpt lat="43.75118" lon="6.62219">
        <ele>1133</ele>
        <time>2017-10-09T07:49:56Z</time>
      </trkpt>
      <trkpt lat="43.75103" lon="6.62213">
        <ele>1134</ele>
        <time>2017-10-09T07:50:18Z</time>
      </trkpt>
      <trkpt lat="43.75095" lon="6.62205">
        <ele>1131</ele>
        <time>2017-10-09T07:50:30Z</time>
      </trkpt>
      <trkpt lat="43.75088" lon="6.62198">
        <ele>1132</ele>
        <time>2017-10-09T07:50:41Z</time>
      </trkpt>
      <trkpt lat="43.75079" lon="6.62196">
        <ele>1134</ele>
        <time>2017-10-09T07:50:50Z</time>
      </trkpt>
      <trkpt lat="43.75051" lon="6.62184">
        <ele>1144</ele>
        <time>2017-10-09T07:51:26Z</time>
      </trkpt>
      <trkpt lat="43.75038" lon="6.62178">
        <ele>1146</ele>
        <time>2017-10-09T07:51:42Z</time>
      </trkpt>
      <trkpt lat="43.75011" lon="6.62174">
        <ele>1143</ele>
        <time>2017-10-09T07:52:14Z</time>
      </trkpt>
      <trkpt lat="43.75005" lon="6.6217">
        <ele>1146</ele>
        <time>2017-10-09T07:52:23Z</time>
      </trkpt>
      <trkpt lat="43.75" lon="6.62166">
        <ele>1148</ele>
        <time>2017-10-09T07:52:29Z</time>
      </trkpt>
      <trkpt lat="43.74995" lon="6.6216">
        <ele>1151</ele>
        <time>2017-10-09T07:52:46Z</time>
      </trkpt>
      <trkpt lat="43.74988" lon="6.62156">
        <ele>1154</ele>
        <time>2017-10-09T07:52:53Z</time>
      </trkpt>
      <trkpt lat="43.74977" lon="6.62147">
        <ele>1156</ele>
        <time>2017-10-09T07:53:07Z</time>
      </trkpt>
      <trkpt lat="43.74971" lon="6.62144">
        <ele>1152</ele>
        <time>2017-10-09T07:53:13Z</time>
      </trkpt>
      <trkpt lat="43.74964" lon="6.62147">
        <ele>1150</ele>
        <time>2017-10-09T07:53:19Z</time>
      </trkpt>
      <trkpt lat="43.7496" lon="6.62143">
        <ele>1140</ele>
        <time>2017-10-09T07:53:29Z</time>
      </trkpt>
      <trkpt lat="43.74952" lon="6.62142">
        <ele>1139</ele>
        <time>2017-10-09T07:53:42Z</time>
      </trkpt>
      <trkpt lat="43.74944" lon="6.62134">
        <ele>1137</ele>
        <time>2017-10-09T07:53:55Z</time>
      </trkpt>
      <trkpt lat="43.74939" lon="6.62131">
        <ele>1142</ele>
        <time>2017-10-09T07:54:02Z</time>
      </trkpt>
      <trkpt lat="43.74936" lon="6.62125">
        <ele>1145</ele>
        <time>2017-10-09T07:54:07Z</time>
      </trkpt>
      <trkpt lat="43.74932" lon="6.62121">
        <ele>1147</ele>
        <time>2017-10-09T07:54:13Z</time>
      </trkpt>
      <trkpt lat="43.74928" lon="6.62115">
        <ele>1151</ele>
        <time>2017-10-09T07:54:21Z</time>
      </trkpt>
      <trkpt lat="43.74927" lon="6.62107">
        <ele>1153</ele>
        <time>2017-10-09T07:54:31Z</time>
      </trkpt>
      <trkpt lat="43.74927" lon="6.62098">
        <ele>1159</ele>
        <time>2017-10-09T07:55:33Z</time>
      </trkpt>
      <trkpt lat="43.74923" lon="6.62098">
        <ele>1155</ele>
        <time>2017-10-09T07:56:07Z</time>
      </trkpt>
      <trkpt lat="43.74923" lon="6.62091">
        <ele>1159</ele>
        <time>2017-10-09T07:57:09Z</time>
      </trkpt>
      <trkpt lat="43.7492" lon="6.6208">
        <ele>1158</ele>
        <time>2017-10-09T07:57:22Z</time>
      </trkpt>
      <trkpt lat="43.74913" lon="6.62076">
        <ele>1156</ele>
        <time>2017-10-09T07:57:28Z</time>
      </trkpt>
      <trkpt lat="43.74905" lon="6.62071">
        <ele>1157</ele>
        <time>2017-10-09T07:57:42Z</time>
      </trkpt>
      <trkpt lat="43.74897" lon="6.62066">
        <ele>1147</ele>
        <time>2017-10-09T07:58:04Z</time>
      </trkpt>
      <trkpt lat="43.7489" lon="6.62062">
        <ele>1147</ele>
        <time>2017-10-09T07:58:08Z</time>
      </trkpt>
      <trkpt lat="43.74878" lon="6.62052">
        <ele>1147</ele>
        <time>2017-10-09T07:58:16Z</time>
      </trkpt>
      <trkpt lat="43.74867" lon="6.62044">
        <ele>1152</ele>
        <time>2017-10-09T07:58:27Z</time>
      </trkpt>
      <trkpt lat="43.74863" lon="6.6204">
        <ele>1157</ele>
        <time>2017-10-09T07:58:32Z</time>
      </trkpt>
      <trkpt lat="43.74868" lon="6.62037">
        <ele>1163</ele>
        <time>2017-10-09T07:58:42Z</time>
      </trkpt>
      <trkpt lat="43.74874" lon="6.62043">
        <ele>1164</ele>
        <time>2017-10-09T07:58:49Z</time>
      </trkpt>
      <trkpt lat="43.74882" lon="6.6205">
        <ele>1165</ele>
        <time>2017-10-09T07:58:59Z</time>
      </trkpt>
      <trkpt lat="43.74891" lon="6.62046">
        <ele>1157</ele>
        <time>2017-10-09T07:59:12Z</time>
      </trkpt>
      <trkpt lat="43.74911" lon="6.62046">
        <ele>1153</ele>
        <time>2017-10-09T07:59:34Z</time>
      </trkpt>
      <trkpt lat="43.74925" lon="6.62054">
        <ele>1173</ele>
        <time>2017-10-09T07:59:49Z</time>
      </trkpt>
      <trkpt lat="43.74935" lon="6.62057">
        <ele>1174</ele>
        <time>2017-10-09T08:00:01Z</time>
      </trkpt>
      <trkpt lat="43.74942" lon="6.62052">
        <ele>1171</ele>
        <time>2017-10-09T08:00:07Z</time>
      </trkpt>
      <trkpt lat="43.7495" lon="6.62062">
        <ele>1173</ele>
        <time>2017-10-09T08:00:21Z</time>
      </trkpt>
      <trkpt lat="43.74958" lon="6.62058">
        <ele>1164</ele>
        <time>2017-10-09T08:00:47Z</time>
      </trkpt>
      <trkpt lat="43.74967" lon="6.62048">
        <ele>1165</ele>
        <time>2017-10-09T08:00:54Z</time>
      </trkpt>
      <trkpt lat="43.74975" lon="6.62038">
        <ele>1170</ele>
        <time>2017-10-09T08:01:00Z</time>
      </trkpt>
      <trkpt lat="43.74983" lon="6.62042">
        <ele>1173</ele>
        <time>2017-10-09T08:01:04Z</time>
      </trkpt>
      <trkpt lat="43.74988" lon="6.62047">
        <ele>1161</ele>
        <time>2017-10-09T08:01:09Z</time>
      </trkpt>
      <trkpt lat="43.74994" lon="6.6205">
        <ele>1166</ele>
        <time>2017-10-09T08:01:15Z</time>
      </trkpt>
      <trkpt lat="43.75005" lon="6.62067">
        <ele>1158</ele>
        <time>2017-10-09T08:01:27Z</time>
      </trkpt>
      <trkpt lat="43.75017" lon="6.62066">
        <ele>1150</ele>
        <time>2017-10-09T08:01:41Z</time>
      </trkpt>
      <trkpt lat="43.75023" lon="6.62064">
        <ele>1173</ele>
        <time>2017-10-09T08:01:47Z</time>
      </trkpt>
      <trkpt lat="43.7503" lon="6.62056">
        <ele>1177</ele>
        <time>2017-10-09T08:01:57Z</time>
      </trkpt>
      <trkpt lat="43.75038" lon="6.62061">
        <ele>1181</ele>
        <time>2017-10-09T08:02:10Z</time>
      </trkpt>
      <trkpt lat="43.75048" lon="6.6206">
        <ele>1170</ele>
        <time>2017-10-09T08:02:22Z</time>
      </trkpt>
      <trkpt lat="43.75056" lon="6.62061">
        <ele>1191</ele>
        <time>2017-10-09T08:02:30Z</time>
      </trkpt>
      <trkpt lat="43.75061" lon="6.62061">
        <ele>1194</ele>
        <time>2017-10-09T08:02:35Z</time>
      </trkpt>
      <trkpt lat="43.7507" lon="6.62059">
        <ele>1193</ele>
        <time>2017-10-09T08:02:47Z</time>
      </trkpt>
      <trkpt lat="43.7508" lon="6.62055">
        <ele>1172</ele>
        <time>2017-10-09T08:02:53Z</time>
      </trkpt>
      <trkpt lat="43.75089" lon="6.62061">
        <ele>1179</ele>
        <time>2017-10-09T08:03:05Z</time>
      </trkpt>
      <trkpt lat="43.751" lon="6.62066">
        <ele>1168</ele>
        <time>2017-10-09T08:03:16Z</time>
      </trkpt>
      <trkpt lat="43.75106" lon="6.62059">
        <ele>1174</ele>
        <time>2017-10-09T08:03:24Z</time>
      </trkpt>
      <trkpt lat="43.75111" lon="6.62052">
        <ele>1194</ele>
        <time>2017-10-09T08:03:32Z</time>
      </trkpt>
      <trkpt lat="43.7512" lon="6.62053">
        <ele>1182</ele>
        <time>2017-10-09T08:03:45Z</time>
      </trkpt>
      <trkpt lat="43.75129" lon="6.62052">
        <ele>1192</ele>
        <time>2017-10-09T08:03:55Z</time>
      </trkpt>
      <trkpt lat="43.75134" lon="6.62057">
        <ele>1188</ele>
        <time>2017-10-09T08:04:03Z</time>
      </trkpt>
      <trkpt lat="43.75141" lon="6.62062">
        <ele>1183</ele>
        <time>2017-10-09T08:04:15Z</time>
      </trkpt>
      <trkpt lat="43.75149" lon="6.62072">
        <ele>1195</ele>
        <time>2017-10-09T08:04:32Z</time>
      </trkpt>
      <trkpt lat="43.75157" lon="6.62072">
        <ele>1174</ele>
        <time>2017-10-09T08:04:38Z</time>
      </trkpt>
      <trkpt lat="43.75171" lon="6.62071">
        <ele>1166</ele>
        <time>2017-10-09T08:04:52Z</time>
      </trkpt>
      <trkpt lat="43.75176" lon="6.62079">
        <ele>1186</ele>
        <time>2017-10-09T08:05:01Z</time>
      </trkpt>
      <trkpt lat="43.75184" lon="6.62088">
        <ele>1170</ele>
        <time>2017-10-09T08:05:21Z</time>
      </trkpt>
      <trkpt lat="43.75196" lon="6.62091">
        <ele>1181</ele>
        <time>2017-10-09T08:05:32Z</time>
      </trkpt>
      <trkpt lat="43.75202" lon="6.62086">
        <ele>1190</ele>
        <time>2017-10-09T08:05:38Z</time>
      </trkpt>
      <trkpt lat="43.75213" lon="6.62081">
        <ele>1190</ele>
        <time>2017-10-09T08:05:55Z</time>
      </trkpt>
      <trkpt lat="43.7522" lon="6.62074">
        <ele>1194</ele>
        <time>2017-10-09T08:06:06Z</time>
      </trkpt>
      <trkpt lat="43.75225" lon="6.6207">
        <ele>1181</ele>
        <time>2017-10-09T08:06:13Z</time>
      </trkpt>
      <trkpt lat="43.75232" lon="6.62067">
        <ele>1191</ele>
        <time>2017-10-09T08:06:25Z</time>
      </trkpt>
      <trkpt lat="43.7524" lon="6.62065">
        <ele>1200</ele>
        <time>2017-10-09T08:06:33Z</time>
      </trkpt>
      <trkpt lat="43.75249" lon="6.62066">
        <ele>1205</ele>
        <time>2017-10-09T08:06:43Z</time>
      </trkpt>
      <trkpt lat="43.75255" lon="6.62073">
        <ele>1219</ele>
        <time>2017-10-09T08:06:52Z</time>
      </trkpt>
      <trkpt lat="43.75273" lon="6.62075">
        <ele>1222</ele>
        <time>2017-10-09T08:07:15Z</time>
      </trkpt>
      <trkpt lat="43.75279" lon="6.62084">
        <ele>1222</ele>
        <time>2017-10-09T08:07:26Z</time>
      </trkpt>
      <trkpt lat="43.75283" lon="6.62096">
        <ele>1223</ele>
        <time>2017-10-09T08:07:39Z</time>
      </trkpt>
      <trkpt lat="43.75292" lon="6.62094">
        <ele>1221</ele>
        <time>2017-10-09T08:07:54Z</time>
      </trkpt>
      <trkpt lat="43.75302" lon="6.621">
        <ele>1227</ele>
        <time>2017-10-09T08:08:06Z</time>
      </trkpt>
      <trkpt lat="43.75309" lon="6.62101">
        <ele>1229</ele>
        <time>2017-10-09T08:08:12Z</time>
      </trkpt>
      <trkpt lat="43.75317" lon="6.621">
        <ele>1230</ele>
        <time>2017-10-09T08:08:21Z</time>
      </trkpt>
      <trkpt lat="43.75323" lon="6.62094">
        <ele>1230</ele>
        <time>2017-10-09T08:08:26Z</time>
      </trkpt>
      <trkpt lat="43.75331" lon="6.6209">
        <ele>1233</ele>
        <time>2017-10-09T08:08:41Z</time>
      </trkpt>
      <trkpt lat="43.75338" lon="6.62094">
        <ele>1231</ele>
        <time>2017-10-09T08:08:55Z</time>
      </trkpt>
      <trkpt lat="43.75347" lon="6.62087">
        <ele>1229</ele>
        <time>2017-10-09T08:09:03Z</time>
      </trkpt>
      <trkpt lat="43.75368" lon="6.62092">
        <ele>1202</ele>
        <time>2017-10-09T08:09:37Z</time>
      </trkpt>
      <trkpt lat="43.75376" lon="6.62088">
        <ele>1227</ele>
        <time>2017-10-09T08:09:45Z</time>
      </trkpt>
      <trkpt lat="43.75385" lon="6.62089">
        <ele>1237</ele>
        <time>2017-10-09T08:09:53Z</time>
      </trkpt>
      <trkpt lat="43.75393" lon="6.62082">
        <ele>1239</ele>
        <time>2017-10-09T08:10:04Z</time>
      </trkpt>
      <trkpt lat="43.75402" lon="6.62083">
        <ele>1241</ele>
        <time>2017-10-09T08:10:16Z</time>
      </trkpt>
      <trkpt lat="43.7541" lon="6.62076">
        <ele>1242</ele>
        <time>2017-10-09T08:10:35Z</time>
      </trkpt>
      <trkpt lat="43.7542" lon="6.62071">
        <ele>1219</ele>
        <time>2017-10-09T08:10:48Z</time>
      </trkpt>
      <trkpt lat="43.75428" lon="6.62069">
        <ele>1236</ele>
        <time>2017-10-09T08:10:56Z</time>
      </trkpt>
      <trkpt lat="43.75435" lon="6.62067">
        <ele>1239</ele>
        <time>2017-10-09T08:11:06Z</time>
      </trkpt>
      <trkpt lat="43.75444" lon="6.62065">
        <ele>1219</ele>
        <time>2017-10-09T08:11:17Z</time>
      </trkpt>
      <trkpt lat="43.75453" lon="6.62065">
        <ele>1223</ele>
        <time>2017-10-09T08:11:24Z</time>
      </trkpt>
      <trkpt lat="43.7546" lon="6.6206">
        <ele>1242</ele>
        <time>2017-10-09T08:11:36Z</time>
      </trkpt>
      <trkpt lat="43.75468" lon="6.62061">
        <ele>1244</ele>
        <time>2017-10-09T08:11:44Z</time>
      </trkpt>
      <trkpt lat="43.75474" lon="6.62059">
        <ele>1246</ele>
        <time>2017-10-09T08:11:50Z</time>
      </trkpt>
      <trkpt lat="43.75483" lon="6.6206">
        <ele>1249</ele>
        <time>2017-10-09T08:11:59Z</time>
      </trkpt>
      <trkpt lat="43.75497" lon="6.62061">
        <ele>1251</ele>
        <time>2017-10-09T08:12:20Z</time>
      </trkpt>
      <trkpt lat="43.75504" lon="6.62062">
        <ele>1255</ele>
        <time>2017-10-09T08:12:30Z</time>
      </trkpt>
      <trkpt lat="43.75512" lon="6.62068">
        <ele>1254</ele>
        <time>2017-10-09T08:12:47Z</time>
      </trkpt>
      <trkpt lat="43.75519" lon="6.62071">
        <ele>1254</ele>
        <time>2017-10-09T08:12:52Z</time>
      </trkpt>
      <trkpt lat="43.75527" lon="6.62069">
        <ele>1253</ele>
        <time>2017-10-09T08:13:02Z</time>
      </trkpt>
      <trkpt lat="43.75536" lon="6.62071">
        <ele>1254</ele>
        <time>2017-10-09T08:13:12Z</time>
      </trkpt>
      <trkpt lat="43.75542" lon="6.62076">
        <ele>1253</ele>
        <time>2017-10-09T08:13:21Z</time>
      </trkpt>
      <trkpt lat="43.7555" lon="6.62075">
        <ele>1252</ele>
        <time>2017-10-09T08:13:29Z</time>
      </trkpt>
      <trkpt lat="43.75558" lon="6.62069">
        <ele>1253</ele>
        <time>2017-10-09T08:13:39Z</time>
      </trkpt>
      <trkpt lat="43.75565" lon="6.6207">
        <ele>1255</ele>
        <time>2017-10-09T08:13:52Z</time>
      </trkpt>
      <trkpt lat="43.75572" lon="6.62065">
        <ele>1255</ele>
        <time>2017-10-09T08:13:59Z</time>
      </trkpt>
      <trkpt lat="43.75579" lon="6.62065">
        <ele>1257</ele>
        <time>2017-10-09T08:14:04Z</time>
      </trkpt>
      <trkpt lat="43.75596" lon="6.62063">
        <ele>1260</ele>
        <time>2017-10-09T08:14:23Z</time>
      </trkpt>
      <trkpt lat="43.75605" lon="6.62064">
        <ele>1245</ele>
        <time>2017-10-09T08:14:34Z</time>
      </trkpt>
      <trkpt lat="43.75613" lon="6.62063">
        <ele>1251</ele>
        <time>2017-10-09T08:14:46Z</time>
      </trkpt>
      <trkpt lat="43.75618" lon="6.62073">
        <ele>1254</ele>
        <time>2017-10-09T08:14:56Z</time>
      </trkpt>
      <trkpt lat="43.7562" lon="6.62086">
        <ele>1259</ele>
        <time>2017-10-09T08:15:00Z</time>
      </trkpt>
      <trkpt lat="43.75627" lon="6.62084">
        <ele>1260</ele>
        <time>2017-10-09T08:15:08Z</time>
      </trkpt>
      <trkpt lat="43.75633" lon="6.62079">
        <ele>1261</ele>
        <time>2017-10-09T08:15:13Z</time>
      </trkpt>
      <trkpt lat="43.7564" lon="6.62075">
        <ele>1263</ele>
        <time>2017-10-09T08:15:21Z</time>
      </trkpt>
      <trkpt lat="43.75647" lon="6.62075">
        <ele>1264</ele>
        <time>2017-10-09T08:15:31Z</time>
      </trkpt>
      <trkpt lat="43.75656" lon="6.62074">
        <ele>1265</ele>
        <time>2017-10-09T08:15:38Z</time>
      </trkpt>
      <trkpt lat="43.75664" lon="6.62059">
        <ele>1260</ele>
        <time>2017-10-09T08:15:57Z</time>
      </trkpt>
      <trkpt lat="43.75678" lon="6.62057">
        <ele>1264</ele>
        <time>2017-10-09T08:16:14Z</time>
      </trkpt>
      <trkpt lat="43.75685" lon="6.62059">
        <ele>1260</ele>
        <time>2017-10-09T08:16:23Z</time>
      </trkpt>
      <trkpt lat="43.75692" lon="6.62058">
        <ele>1260</ele>
        <time>2017-10-09T08:16:29Z</time>
      </trkpt>
      <trkpt lat="43.75713" lon="6.62054">
        <ele>1263</ele>
        <time>2017-10-09T08:16:54Z</time>
      </trkpt>
      <trkpt lat="43.75717" lon="6.62048">
        <ele>1239</ele>
        <time>2017-10-09T08:17:13Z</time>
      </trkpt>
      <trkpt lat="43.75723" lon="6.62042">
        <ele>1252</ele>
        <time>2017-10-09T08:17:18Z</time>
      </trkpt>
      <trkpt lat="43.75728" lon="6.62033">
        <ele>1223</ele>
        <time>2017-10-09T08:17:29Z</time>
      </trkpt>
      <trkpt lat="43.75733" lon="6.62026">
        <ele>1235</ele>
        <time>2017-10-09T08:17:35Z</time>
      </trkpt>
      <trkpt lat="43.75738" lon="6.62018">
        <ele>1240</ele>
        <time>2017-10-09T08:17:53Z</time>
      </trkpt>
      <trkpt lat="43.75751" lon="6.62008">
        <ele>1259</ele>
        <time>2017-10-09T08:18:08Z</time>
      </trkpt>
      <trkpt lat="43.75755" lon="6.61998">
        <ele>1264</ele>
        <time>2017-10-09T08:18:20Z</time>
      </trkpt>
      <trkpt lat="43.75757" lon="6.61986">
        <ele>1230</ele>
        <time>2017-10-09T08:18:37Z</time>
      </trkpt>
      <trkpt lat="43.75763" lon="6.6198">
        <ele>1244</ele>
        <time>2017-10-09T08:18:43Z</time>
      </trkpt>
      <trkpt lat="43.75767" lon="6.61967">
        <ele>1227</ele>
        <time>2017-10-09T08:19:02Z</time>
      </trkpt>
      <trkpt lat="43.75773" lon="6.61958">
        <ele>1257</ele>
        <time>2017-10-09T08:19:10Z</time>
      </trkpt>
      <trkpt lat="43.75783" lon="6.61957">
        <ele>1258</ele>
        <time>2017-10-09T08:19:23Z</time>
      </trkpt>
      <trkpt lat="43.7579" lon="6.61962">
        <ele>1284</ele>
        <time>2017-10-09T08:19:35Z</time>
      </trkpt>
      <trkpt lat="43.75792" lon="6.61969">
        <ele>1290</ele>
        <time>2017-10-09T08:19:43Z</time>
      </trkpt>
      <trkpt lat="43.75793" lon="6.61969">
        <ele>1291</ele>
        <time>2017-10-09T08:22:12Z</time>
      </trkpt>
      <trkpt lat="43.75797" lon="6.61973">
        <ele>1293</ele>
        <time>2017-10-09T08:28:29Z</time>
      </trkpt>
      <trkpt lat="43.758" lon="6.61967">
        <ele>1294</ele>
        <time>2017-10-09T08:30:42Z</time>
      </trkpt>
      <trkpt lat="43.75793" lon="6.61967">
        <ele>1295</ele>
        <time>2017-10-09T08:32:34Z</time>
      </trkpt>
      <trkpt lat="43.75795" lon="6.61967">
        <ele>1298</ele>
        <time>2017-10-09T08:33:17Z</time>
      </trkpt>
      <trkpt lat="43.75797" lon="6.61974">
        <ele>1297</ele>
        <time>2017-10-09T08:33:38Z</time>
      </trkpt>
      <trkpt lat="43.75796" lon="6.6197">
        <ele>1296</ele>
        <time>2017-10-09T08:36:04Z</time>
      </trkpt>
      <trkpt lat="43.75793" lon="6.61964">
        <ele>1296</ele>
        <time>2017-10-09T08:36:25Z</time>
      </trkpt>
      <trkpt lat="43.75789" lon="6.61961">
        <ele>1296</ele>
        <time>2017-10-09T08:36:30Z</time>
      </trkpt>
      <trkpt lat="43.75784" lon="6.61958">
        <ele>1296</ele>
        <time>2017-10-09T08:36:46Z</time>
      </trkpt>
      <trkpt lat="43.7578" lon="6.61948">
        <ele>1292</ele>
        <time>2017-10-09T08:37:22Z</time>
      </trkpt>
      <trkpt lat="43.75774" lon="6.61938">
        <ele>1269</ele>
        <time>2017-10-09T08:37:32Z</time>
      </trkpt>
      <trkpt lat="43.75778" lon="6.61923">
        <ele>1265</ele>
        <time>2017-10-09T08:37:44Z</time>
      </trkpt>
      <trkpt lat="43.75778" lon="6.6191">
        <ele>1278</ele>
        <time>2017-10-09T08:37:50Z</time>
      </trkpt>
      <trkpt lat="43.75775" lon="6.61898">
        <ele>1281</ele>
        <time>2017-10-09T08:37:58Z</time>
      </trkpt>
      <trkpt lat="43.75776" lon="6.6188">
        <ele>1287</ele>
        <time>2017-10-09T08:38:15Z</time>
      </trkpt>
      <trkpt lat="43.75768" lon="6.61874">
        <ele>1289</ele>
        <time>2017-10-09T08:38:23Z</time>
      </trkpt>
      <trkpt lat="43.75761" lon="6.61876">
        <ele>1272</ele>
        <time>2017-10-09T08:38:46Z</time>
      </trkpt>
      <trkpt lat="43.75749" lon="6.61864">
        <ele>1280</ele>
        <time>2017-10-09T08:39:50Z</time>
      </trkpt>
      <trkpt lat="43.75741" lon="6.61851">
        <ele>1300</ele>
        <time>2017-10-09T08:40:18Z</time>
      </trkpt>
      <trkpt lat="43.75737" lon="6.61843">
        <ele>1292</ele>
        <time>2017-10-09T08:40:45Z</time>
      </trkpt>
      <trkpt lat="43.75729" lon="6.61838">
        <ele>1243</ele>
        <time>2017-10-09T08:40:59Z</time>
      </trkpt>
      <trkpt lat="43.75722" lon="6.6184">
        <ele>1293</ele>
        <time>2017-10-09T08:41:18Z</time>
      </trkpt>
      <trkpt lat="43.75716" lon="6.61842">
        <ele>1269</ele>
        <time>2017-10-09T08:41:48Z</time>
      </trkpt>
      <trkpt lat="43.7571" lon="6.61833">
        <ele>1264</ele>
        <time>2017-10-09T08:42:08Z</time>
      </trkpt>
      <trkpt lat="43.757" lon="6.61832">
        <ele>1313</ele>
        <time>2017-10-09T08:43:03Z</time>
      </trkpt>
      <trkpt lat="43.75696" lon="6.61821">
        <ele>1298</ele>
        <time>2017-10-09T08:43:13Z</time>
      </trkpt>
      <trkpt lat="43.75688" lon="6.61824">
        <ele>1290</ele>
        <time>2017-10-09T08:43:55Z</time>
      </trkpt>
      <trkpt lat="43.75681" lon="6.61823">
        <ele>1322</ele>
        <time>2017-10-09T08:44:38Z</time>
      </trkpt>
      <trkpt lat="43.75675" lon="6.61818">
        <ele>1335</ele>
        <time>2017-10-09T08:44:50Z</time>
      </trkpt>
      <trkpt lat="43.75671" lon="6.61823">
        <ele>1313</ele>
        <time>2017-10-09T08:45:20Z</time>
      </trkpt>
      <trkpt lat="43.75665" lon="6.61823">
        <ele>1342</ele>
        <time>2017-10-09T08:45:54Z</time>
      </trkpt>
      <trkpt lat="43.75661" lon="6.61816">
        <ele>1336</ele>
        <time>2017-10-09T08:46:13Z</time>
      </trkpt>
      <trkpt lat="43.75658" lon="6.61809">
        <ele>1346</ele>
        <time>2017-10-09T08:46:39Z</time>
      </trkpt>
      <trkpt lat="43.75657" lon="6.61807">
        <ele>1349</ele>
        <time>2017-10-09T08:47:43Z</time>
      </trkpt>
      <trkpt lat="43.75651" lon="6.61803">
        <ele>1349</ele>
        <time>2017-10-09T08:47:52Z</time>
      </trkpt>
      <trkpt lat="43.75645" lon="6.61801">
        <ele>1352</ele>
        <time>2017-10-09T08:47:59Z</time>
      </trkpt>
      <trkpt lat="43.75641" lon="6.61795">
        <ele>1354</ele>
        <time>2017-10-09T08:48:22Z</time>
      </trkpt>
      <trkpt lat="43.7564" lon="6.61794">
        <ele>1356</ele>
        <time>2017-10-09T08:49:00Z</time>
      </trkpt>
      <trkpt lat="43.75635" lon="6.61792">
        <ele>1358</ele>
        <time>2017-10-09T08:49:07Z</time>
      </trkpt>
      <trkpt lat="43.75634" lon="6.61783">
        <ele>1360</ele>
        <time>2017-10-09T08:49:24Z</time>
      </trkpt>
      <trkpt lat="43.75629" lon="6.61777">
        <ele>1366</ele>
        <time>2017-10-09T08:49:33Z</time>
      </trkpt>
      <trkpt lat="43.75626" lon="6.61774">
        <ele>1374</ele>
        <time>2017-10-09T08:50:20Z</time>
      </trkpt>
      <trkpt lat="43.75622" lon="6.61768">
        <ele>1374</ele>
        <time>2017-10-09T08:50:31Z</time>
      </trkpt>
      <trkpt lat="43.7562" lon="6.61759">
        <ele>1376</ele>
        <time>2017-10-09T08:50:37Z</time>
      </trkpt>
      <trkpt lat="43.75616" lon="6.61762">
        <ele>1377</ele>
        <time>2017-10-09T08:52:05Z</time>
      </trkpt>
      <trkpt lat="43.75613" lon="6.61752">
        <ele>1378</ele>
        <time>2017-10-09T08:52:23Z</time>
      </trkpt>
      <trkpt lat="43.75608" lon="6.61748">
        <ele>1382</ele>
        <time>2017-10-09T08:52:37Z</time>
      </trkpt>
      <trkpt lat="43.75603" lon="6.61743">
        <ele>1385</ele>
        <time>2017-10-09T08:52:52Z</time>
      </trkpt>
      <trkpt lat="43.75599" lon="6.61742">
        <ele>1391</ele>
        <time>2017-10-09T08:53:25Z</time>
      </trkpt>
      <trkpt lat="43.75597" lon="6.61729">
        <ele>1382</ele>
        <time>2017-10-09T08:54:06Z</time>
      </trkpt>
      <trkpt lat="43.75594" lon="6.61725">
        <ele>1384</ele>
        <time>2017-10-09T08:54:10Z</time>
      </trkpt>
      <trkpt lat="43.75589" lon="6.61723">
        <ele>1389</ele>
        <time>2017-10-09T08:54:19Z</time>
      </trkpt>
      <trkpt lat="43.75582" lon="6.61715">
        <ele>1394</ele>
        <time>2017-10-09T08:54:36Z</time>
      </trkpt>
      <trkpt lat="43.75577" lon="6.61712">
        <ele>1398</ele>
        <time>2017-10-09T08:55:05Z</time>
      </trkpt>
      <trkpt lat="43.75574" lon="6.61706">
        <ele>1400</ele>
        <time>2017-10-09T08:55:19Z</time>
      </trkpt>
      <trkpt lat="43.7557" lon="6.61704">
        <ele>1398</ele>
        <time>2017-10-09T08:56:08Z</time>
      </trkpt>
      <trkpt lat="43.75568" lon="6.61699">
        <ele>1404</ele>
        <time>2017-10-09T08:56:52Z</time>
      </trkpt>
      <trkpt lat="43.75562" lon="6.61686">
        <ele>1413</ele>
        <time>2017-10-09T08:57:04Z</time>
      </trkpt>
      <trkpt lat="43.75558" lon="6.61684">
        <ele>1415</ele>
        <time>2017-10-09T08:57:22Z</time>
      </trkpt>
      <trkpt lat="43.75554" lon="6.61679">
        <ele>1416</ele>
        <time>2017-10-09T08:57:35Z</time>
      </trkpt>
      <trkpt lat="43.75549" lon="6.61681">
        <ele>1416</ele>
        <time>2017-10-09T08:57:51Z</time>
      </trkpt>
      <trkpt lat="43.75544" lon="6.61677">
        <ele>1416</ele>
        <time>2017-10-09T08:57:58Z</time>
      </trkpt>
      <trkpt lat="43.75543" lon="6.61669">
        <ele>1397</ele>
        <time>2017-10-09T08:58:28Z</time>
      </trkpt>
      <trkpt lat="43.75547" lon="6.61661">
        <ele>1406</ele>
        <time>2017-10-09T08:58:35Z</time>
      </trkpt>
      <trkpt lat="43.75549" lon="6.61656">
        <ele>1412</ele>
        <time>2017-10-09T08:58:57Z</time>
      </trkpt>
      <trkpt lat="43.75545" lon="6.61655">
        <ele>1414</ele>
        <time>2017-10-09T08:59:07Z</time>
      </trkpt>
      <trkpt lat="43.7554" lon="6.61648">
        <ele>1415</ele>
        <time>2017-10-09T08:59:33Z</time>
      </trkpt>
      <trkpt lat="43.75535" lon="6.61638">
        <ele>1422</ele>
        <time>2017-10-09T08:59:45Z</time>
      </trkpt>
      <trkpt lat="43.7553" lon="6.61635">
        <ele>1428</ele>
        <time>2017-10-09T08:59:59Z</time>
      </trkpt>
      <trkpt lat="43.75526" lon="6.61638">
        <ele>1431</ele>
        <time>2017-10-09T09:00:55Z</time>
      </trkpt>
      <trkpt lat="43.75523" lon="6.61634">
        <ele>1434</ele>
        <time>2017-10-09T09:01:04Z</time>
      </trkpt>
      <trkpt lat="43.7552" lon="6.61628">
        <ele>1435</ele>
        <time>2017-10-09T09:01:15Z</time>
      </trkpt>
      <trkpt lat="43.75517" lon="6.6163">
        <ele>1423</ele>
        <time>2017-10-09T09:01:51Z</time>
      </trkpt>
      <trkpt lat="43.75512" lon="6.6163">
        <ele>1425</ele>
        <time>2017-10-09T09:02:01Z</time>
      </trkpt>
      <trkpt lat="43.75508" lon="6.61625">
        <ele>1434</ele>
        <time>2017-10-09T09:02:07Z</time>
      </trkpt>
      <trkpt lat="43.75507" lon="6.61617">
        <ele>1436</ele>
        <time>2017-10-09T09:02:14Z</time>
      </trkpt>
      <trkpt lat="43.75503" lon="6.61599">
        <ele>1439</ele>
        <time>2017-10-09T09:02:28Z</time>
      </trkpt>
      <trkpt lat="43.75499" lon="6.61592">
        <ele>1439</ele>
        <time>2017-10-09T09:02:40Z</time>
      </trkpt>
      <trkpt lat="43.75496" lon="6.61589">
        <ele>1440</ele>
        <time>2017-10-09T09:02:47Z</time>
      </trkpt>
      <trkpt lat="43.75492" lon="6.61597">
        <ele>1440</ele>
        <time>2017-10-09T09:03:05Z</time>
      </trkpt>
      <trkpt lat="43.75491" lon="6.61605">
        <ele>1401</ele>
        <time>2017-10-09T09:03:10Z</time>
      </trkpt>
      <trkpt lat="43.75489" lon="6.61614">
        <ele>1411</ele>
        <time>2017-10-09T09:03:17Z</time>
      </trkpt>
      <trkpt lat="43.75485" lon="6.6161">
        <ele>1417</ele>
        <time>2017-10-09T09:03:22Z</time>
      </trkpt>
      <trkpt lat="43.7548" lon="6.61616">
        <ele>1439</ele>
        <time>2017-10-09T09:03:48Z</time>
      </trkpt>
      <trkpt lat="43.75475" lon="6.61615">
        <ele>1440</ele>
        <time>2017-10-09T09:04:05Z</time>
      </trkpt>
      <trkpt lat="43.75469" lon="6.6161">
        <ele>1446</ele>
        <time>2017-10-09T09:04:15Z</time>
      </trkpt>
      <trkpt lat="43.75466" lon="6.61603">
        <ele>1448</ele>
        <time>2017-10-09T09:04:20Z</time>
      </trkpt>
      <trkpt lat="43.75461" lon="6.61604">
        <ele>1448</ele>
        <time>2017-10-09T09:04:49Z</time>
      </trkpt>
      <trkpt lat="43.75457" lon="6.61599">
        <ele>1449</ele>
        <time>2017-10-09T09:05:01Z</time>
      </trkpt>
      <trkpt lat="43.75453" lon="6.61594">
        <ele>1451</ele>
        <time>2017-10-09T09:05:12Z</time>
      </trkpt>
      <trkpt lat="43.75448" lon="6.61591">
        <ele>1451</ele>
        <time>2017-10-09T09:05:21Z</time>
      </trkpt>
      <trkpt lat="43.75444" lon="6.61594">
        <ele>1452</ele>
        <time>2017-10-09T09:05:35Z</time>
      </trkpt>
      <trkpt lat="43.7544" lon="6.61592">
        <ele>1453</ele>
        <time>2017-10-09T09:05:42Z</time>
      </trkpt>
      <trkpt lat="43.75435" lon="6.61586">
        <ele>1459</ele>
        <time>2017-10-09T09:05:54Z</time>
      </trkpt>
      <trkpt lat="43.75432" lon="6.6158">
        <ele>1459</ele>
        <time>2017-10-09T09:06:09Z</time>
      </trkpt>
      <trkpt lat="43.75429" lon="6.61572">
        <ele>1414</ele>
        <time>2017-10-09T09:06:30Z</time>
      </trkpt>
      <trkpt lat="43.75428" lon="6.61566">
        <ele>1442</ele>
        <time>2017-10-09T09:06:39Z</time>
      </trkpt>
      <trkpt lat="43.75424" lon="6.61561">
        <ele>1455</ele>
        <time>2017-10-09T09:06:53Z</time>
      </trkpt>
      <trkpt lat="43.75417" lon="6.6156">
        <ele>1454</ele>
        <time>2017-10-09T09:07:11Z</time>
      </trkpt>
      <trkpt lat="43.75416" lon="6.61551">
        <ele>1450</ele>
        <time>2017-10-09T09:08:13Z</time>
      </trkpt>
      <trkpt lat="43.75413" lon="6.61546">
        <ele>1452</ele>
        <time>2017-10-09T09:08:19Z</time>
      </trkpt>
      <trkpt lat="43.75405" lon="6.61544">
        <ele>1453</ele>
        <time>2017-10-09T09:08:28Z</time>
      </trkpt>
      <trkpt lat="43.754" lon="6.61526">
        <ele>1439</ele>
        <time>2017-10-09T09:08:51Z</time>
      </trkpt>
      <trkpt lat="43.75385" lon="6.61532">
        <ele>1418</ele>
        <time>2017-10-09T09:09:31Z</time>
      </trkpt>
      <trkpt lat="43.75373" lon="6.61527">
        <ele>1434</ele>
        <time>2017-10-09T09:10:27Z</time>
      </trkpt>
      <trkpt lat="43.75369" lon="6.6151">
        <ele>1438</ele>
        <time>2017-10-09T09:10:58Z</time>
      </trkpt>
      <trkpt lat="43.75362" lon="6.61505">
        <ele>1470</ele>
        <time>2017-10-09T09:11:24Z</time>
      </trkpt>
      <trkpt lat="43.75366" lon="6.61499">
        <ele>1464</ele>
        <time>2017-10-09T09:11:29Z</time>
      </trkpt>
      <trkpt lat="43.75365" lon="6.61487">
        <ele>1448</ele>
        <time>2017-10-09T09:11:44Z</time>
      </trkpt>
      <trkpt lat="43.75353" lon="6.61482">
        <ele>1453</ele>
        <time>2017-10-09T09:11:56Z</time>
      </trkpt>
      <trkpt lat="43.75345" lon="6.6148">
        <ele>1423</ele>
        <time>2017-10-09T09:12:22Z</time>
      </trkpt>
      <trkpt lat="43.75339" lon="6.61478">
        <ele>1462</ele>
        <time>2017-10-09T09:12:56Z</time>
      </trkpt>
      <trkpt lat="43.75334" lon="6.61471">
        <ele>1472</ele>
        <time>2017-10-09T09:13:20Z</time>
      </trkpt>
      <trkpt lat="43.75328" lon="6.61475">
        <ele>1454</ele>
        <time>2017-10-09T09:13:29Z</time>
      </trkpt>
      <trkpt lat="43.75322" lon="6.61472">
        <ele>1470</ele>
        <time>2017-10-09T09:13:40Z</time>
      </trkpt>
      <trkpt lat="43.7532" lon="6.61461">
        <ele>1445</ele>
        <time>2017-10-09T09:13:56Z</time>
      </trkpt>
      <trkpt lat="43.75311" lon="6.61457">
        <ele>1399</ele>
        <time>2017-10-09T09:14:23Z</time>
      </trkpt>
      <trkpt lat="43.75303" lon="6.61444">
        <ele>1481</ele>
        <time>2017-10-09T09:23:10Z</time>
      </trkpt>
      <trkpt lat="43.75293" lon="6.61453">
        <ele>1491</ele>
        <time>2017-10-09T09:23:32Z</time>
      </trkpt>
      <trkpt lat="43.75283" lon="6.61442">
        <ele>1470</ele>
        <time>2017-10-09T09:23:46Z</time>
      </trkpt>
      <trkpt lat="43.75276" lon="6.61436">
        <ele>1470</ele>
        <time>2017-10-09T09:24:03Z</time>
      </trkpt>
      <trkpt lat="43.75264" lon="6.61436">
        <ele>1402</ele>
        <time>2017-10-09T09:24:21Z</time>
      </trkpt>
      <trkpt lat="43.75262" lon="6.61426">
        <ele>1453</ele>
        <time>2017-10-09T09:24:27Z</time>
      </trkpt>
      <trkpt lat="43.75258" lon="6.61421">
        <ele>1462</ele>
        <time>2017-10-09T09:24:44Z</time>
      </trkpt>
      <trkpt lat="43.75251" lon="6.61417">
        <ele>1423</ele>
        <time>2017-10-09T09:24:51Z</time>
      </trkpt>
      <trkpt lat="43.75246" lon="6.6141">
        <ele>1432</ele>
        <time>2017-10-09T09:25:10Z</time>
      </trkpt>
      <trkpt lat="43.75232" lon="6.61406">
        <ele>1434</ele>
        <time>2017-10-09T09:25:24Z</time>
      </trkpt>
      <trkpt lat="43.75221" lon="6.61397">
        <ele>1469</ele>
        <time>2017-10-09T09:25:41Z</time>
      </trkpt>
      <trkpt lat="43.75209" lon="6.61392">
        <ele>1454</ele>
        <time>2017-10-09T09:26:15Z</time>
      </trkpt>
      <trkpt lat="43.75195" lon="6.61391">
        <ele>1434</ele>
        <time>2017-10-09T09:26:42Z</time>
      </trkpt>
      <trkpt lat="43.75187" lon="6.61372">
        <ele>1423</ele>
        <time>2017-10-09T09:27:09Z</time>
      </trkpt>
      <trkpt lat="43.75174" lon="6.61364">
        <ele>1435</ele>
        <time>2017-10-09T09:27:23Z</time>
      </trkpt>
      <trkpt lat="43.75164" lon="6.61347">
        <ele>1443</ele>
        <time>2017-10-09T09:27:50Z</time>
      </trkpt>
      <trkpt lat="43.75153" lon="6.61336">
        <ele>1458</ele>
        <time>2017-10-09T09:28:14Z</time>
      </trkpt>
      <trkpt lat="43.75143" lon="6.6132">
        <ele>1499</ele>
        <time>2017-10-09T09:28:56Z</time>
      </trkpt>
      <trkpt lat="43.7513" lon="6.61314">
        <ele>1451</ele>
        <time>2017-10-09T09:29:22Z</time>
      </trkpt>
      <trkpt lat="43.75119" lon="6.61303">
        <ele>1479</ele>
        <time>2017-10-09T09:30:09Z</time>
      </trkpt>
      <trkpt lat="43.75108" lon="6.61297">
        <ele>1526</ele>
        <time>2017-10-09T09:30:30Z</time>
      </trkpt>
      <trkpt lat="43.75094" lon="6.613">
        <ele>1533</ele>
        <time>2017-10-09T09:31:29Z</time>
      </trkpt>
      <trkpt lat="43.75088" lon="6.61281">
        <ele>1532</ele>
        <time>2017-10-09T09:31:49Z</time>
      </trkpt>
      <trkpt lat="43.75075" lon="6.61278">
        <ele>1452</ele>
        <time>2017-10-09T09:32:03Z</time>
      </trkpt>
      <trkpt lat="43.75066" lon="6.61264">
        <ele>1478</ele>
        <time>2017-10-09T09:32:29Z</time>
      </trkpt>
      <trkpt lat="43.75061" lon="6.61246">
        <ele>1504</ele>
        <time>2017-10-09T09:32:53Z</time>
      </trkpt>
      <trkpt lat="43.7505" lon="6.61234">
        <ele>1522</ele>
        <time>2017-10-09T09:33:34Z</time>
      </trkpt>
      <trkpt lat="43.75042" lon="6.6122">
        <ele>1521</ele>
        <time>2017-10-09T09:33:52Z</time>
      </trkpt>
      <trkpt lat="43.75031" lon="6.61211">
        <ele>1542</ele>
        <time>2017-10-09T09:34:53Z</time>
      </trkpt>
      <trkpt lat="43.7502" lon="6.61202">
        <ele>1564</ele>
        <time>2017-10-09T09:35:34Z</time>
      </trkpt>
      <trkpt lat="43.75017" lon="6.61183">
        <ele>1565</ele>
        <time>2017-10-09T09:35:54Z</time>
      </trkpt>
      <trkpt lat="43.75005" lon="6.61179">
        <ele>1565</ele>
        <time>2017-10-09T09:36:24Z</time>
      </trkpt>
      <trkpt lat="43.74992" lon="6.61184">
        <ele>1562</ele>
        <time>2017-10-09T09:36:59Z</time>
      </trkpt>
      <trkpt lat="43.7499" lon="6.61176">
        <ele>1567</ele>
        <time>2017-10-09T09:37:20Z</time>
      </trkpt>
      <trkpt lat="43.74983" lon="6.61172">
        <ele>1547</ele>
        <time>2017-10-09T09:37:51Z</time>
      </trkpt>
      <trkpt lat="43.7498" lon="6.61176">
        <ele>1570</ele>
        <time>2017-10-09T09:38:00Z</time>
      </trkpt>
      <trkpt lat="43.74976" lon="6.61176">
        <ele>1576</ele>
        <time>2017-10-09T09:38:33Z</time>
      </trkpt>
      <trkpt lat="43.74971" lon="6.61175">
        <ele>1581</ele>
        <time>2017-10-09T09:38:38Z</time>
      </trkpt>
      <trkpt lat="43.74965" lon="6.61173">
        <ele>1583</ele>
        <time>2017-10-09T09:38:45Z</time>
      </trkpt>
      <trkpt lat="43.74959" lon="6.61168">
        <ele>1586</ele>
        <time>2017-10-09T09:38:53Z</time>
      </trkpt>
      <trkpt lat="43.74956" lon="6.61161">
        <ele>1584</ele>
        <time>2017-10-09T09:39:23Z</time>
      </trkpt>
      <trkpt lat="43.74955" lon="6.61155">
        <ele>1582</ele>
        <time>2017-10-09T09:39:39Z</time>
      </trkpt>
      <trkpt lat="43.74956" lon="6.61146">
        <ele>1580</ele>
        <time>2017-10-09T09:39:48Z</time>
      </trkpt>
      <trkpt lat="43.74952" lon="6.61139">
        <ele>1552</ele>
        <time>2017-10-09T09:40:04Z</time>
      </trkpt>
      <trkpt lat="43.74947" lon="6.61134">
        <ele>1566</ele>
        <time>2017-10-09T09:40:21Z</time>
      </trkpt>
      <trkpt lat="43.74943" lon="6.61131">
        <ele>1572</ele>
        <time>2017-10-09T09:40:27Z</time>
      </trkpt>
      <trkpt lat="43.74939" lon="6.61124">
        <ele>1578</ele>
        <time>2017-10-09T09:40:56Z</time>
      </trkpt>
      <trkpt lat="43.74935" lon="6.61118">
        <ele>1492</ele>
        <time>2017-10-09T09:41:03Z</time>
      </trkpt>
      <trkpt lat="43.74927" lon="6.61122">
        <ele>1531</ele>
        <time>2017-10-09T09:41:42Z</time>
      </trkpt>
      <trkpt lat="43.74921" lon="6.61122">
        <ele>1532</ele>
        <time>2017-10-09T09:41:53Z</time>
      </trkpt>
      <trkpt lat="43.74917" lon="6.61124">
        <ele>1567</ele>
        <time>2017-10-09T09:42:04Z</time>
      </trkpt>
      <trkpt lat="43.74913" lon="6.61122">
        <ele>1574</ele>
        <time>2017-10-09T09:42:13Z</time>
      </trkpt>
      <trkpt lat="43.74905" lon="6.61123">
        <ele>1579</ele>
        <time>2017-10-09T09:42:30Z</time>
      </trkpt>
      <trkpt lat="43.74896" lon="6.61127">
        <ele>1582</ele>
        <time>2017-10-09T09:42:49Z</time>
      </trkpt>
      <trkpt lat="43.74892" lon="6.61125">
        <ele>1585</ele>
        <time>2017-10-09T09:42:55Z</time>
      </trkpt>
      <trkpt lat="43.74888" lon="6.61123">
        <ele>1586</ele>
        <time>2017-10-09T09:43:08Z</time>
      </trkpt>
      <trkpt lat="43.74877" lon="6.61127">
        <ele>1586</ele>
        <time>2017-10-09T09:43:23Z</time>
      </trkpt>
      <trkpt lat="43.74873" lon="6.61127">
        <ele>1588</ele>
        <time>2017-10-09T09:43:36Z</time>
      </trkpt>
      <trkpt lat="43.74871" lon="6.61132">
        <ele>1589</ele>
        <time>2017-10-09T09:43:46Z</time>
      </trkpt>
      <trkpt lat="43.74868" lon="6.61134">
        <ele>1596</ele>
        <time>2017-10-09T09:45:52Z</time>
      </trkpt>
      <trkpt lat="43.74865" lon="6.6113">
        <ele>1596</ele>
        <time>2017-10-09T10:43:04Z</time>
      </trkpt>
      <trkpt lat="43.74861" lon="6.61133">
        <ele>1596</ele>
        <time>2017-10-09T10:43:09Z</time>
      </trkpt>
      <trkpt lat="43.74857" lon="6.61134">
        <ele>1588</ele>
        <time>2017-10-09T10:43:19Z</time>
      </trkpt>
      <trkpt lat="43.74852" lon="6.61133">
        <ele>1588</ele>
        <time>2017-10-09T10:43:27Z</time>
      </trkpt>
      <trkpt lat="43.74849" lon="6.61128">
        <ele>1585</ele>
        <time>2017-10-09T10:43:42Z</time>
      </trkpt>
      <trkpt lat="43.74846" lon="6.61125">
        <ele>1586</ele>
        <time>2017-10-09T10:43:47Z</time>
      </trkpt>
      <trkpt lat="43.74838" lon="6.61119">
        <ele>1585</ele>
        <time>2017-10-09T10:44:10Z</time>
      </trkpt>
      <trkpt lat="43.74834" lon="6.61116">
        <ele>1584</ele>
        <time>2017-10-09T10:44:15Z</time>
      </trkpt>
      <trkpt lat="43.74831" lon="6.61114">
        <ele>1585</ele>
        <time>2017-10-09T10:44:23Z</time>
      </trkpt>
      <trkpt lat="43.74828" lon="6.61109">
        <ele>1583</ele>
        <time>2017-10-09T10:44:43Z</time>
      </trkpt>
      <trkpt lat="43.74823" lon="6.61111">
        <ele>1581</ele>
        <time>2017-10-09T10:44:53Z</time>
      </trkpt>
      <trkpt lat="43.74818" lon="6.61109">
        <ele>1578</ele>
        <time>2017-10-09T10:45:07Z</time>
      </trkpt>
      <trkpt lat="43.74813" lon="6.61106">
        <ele>1578</ele>
        <time>2017-10-09T10:45:17Z</time>
      </trkpt>
      <trkpt lat="43.74807" lon="6.61105">
        <ele>1577</ele>
        <time>2017-10-09T10:45:32Z</time>
      </trkpt>
      <trkpt lat="43.74805" lon="6.61098">
        <ele>1579</ele>
        <time>2017-10-09T10:45:51Z</time>
      </trkpt>
      <trkpt lat="43.74799" lon="6.611">
        <ele>1580</ele>
        <time>2017-10-09T10:46:00Z</time>
      </trkpt>
      <trkpt lat="43.74799" lon="6.61097">
        <ele>1573</ele>
        <time>2017-10-09T10:46:40Z</time>
      </trkpt>
      <trkpt lat="43.74794" lon="6.61089">
        <ele>1571</ele>
        <time>2017-10-09T10:47:09Z</time>
      </trkpt>
      <trkpt lat="43.7479" lon="6.61093">
        <ele>1572</ele>
        <time>2017-10-09T10:47:28Z</time>
      </trkpt>
      <trkpt lat="43.74786" lon="6.61089">
        <ele>1570</ele>
        <time>2017-10-09T10:48:03Z</time>
      </trkpt>
      <trkpt lat="43.74783" lon="6.61084">
        <ele>1566</ele>
        <time>2017-10-09T10:48:15Z</time>
      </trkpt>
      <trkpt lat="43.74775" lon="6.61083">
        <ele>1464</ele>
        <time>2017-10-09T10:48:34Z</time>
      </trkpt>
      <trkpt lat="43.74765" lon="6.61077">
        <ele>1541</ele>
        <time>2017-10-09T10:48:50Z</time>
      </trkpt>
      <trkpt lat="43.7476" lon="6.61073">
        <ele>1560</ele>
        <time>2017-10-09T10:49:08Z</time>
      </trkpt>
      <trkpt lat="43.74754" lon="6.61073">
        <ele>1562</ele>
        <time>2017-10-09T10:49:11Z</time>
      </trkpt>
      <trkpt lat="43.74751" lon="6.6107">
        <ele>1569</ele>
        <time>2017-10-09T10:49:15Z</time>
      </trkpt>
      <trkpt lat="43.74746" lon="6.61067">
        <ele>1569</ele>
        <time>2017-10-09T10:49:23Z</time>
      </trkpt>
      <trkpt lat="43.74741" lon="6.61067">
        <ele>1569</ele>
        <time>2017-10-09T10:49:30Z</time>
      </trkpt>
      <trkpt lat="43.74736" lon="6.61067">
        <ele>1567</ele>
        <time>2017-10-09T10:49:36Z</time>
      </trkpt>
      <trkpt lat="43.74732" lon="6.61066">
        <ele>1567</ele>
        <time>2017-10-09T10:49:41Z</time>
      </trkpt>
      <trkpt lat="43.74728" lon="6.61068">
        <ele>1564</ele>
        <time>2017-10-09T10:49:49Z</time>
      </trkpt>
      <trkpt lat="43.74723" lon="6.61064">
        <ele>1564</ele>
        <time>2017-10-09T10:50:02Z</time>
      </trkpt>
      <trkpt lat="43.74718" lon="6.61061">
        <ele>1536</ele>
        <time>2017-10-09T10:50:06Z</time>
      </trkpt>
      <trkpt lat="43.74711" lon="6.6106">
        <ele>1548</ele>
        <time>2017-10-09T10:50:15Z</time>
      </trkpt>
      <trkpt lat="43.74702" lon="6.61057">
        <ele>1562</ele>
        <time>2017-10-09T10:50:25Z</time>
      </trkpt>
      <trkpt lat="43.747" lon="6.61052">
        <ele>1563</ele>
        <time>2017-10-09T10:50:36Z</time>
      </trkpt>
      <trkpt lat="43.74696" lon="6.6105">
        <ele>1560</ele>
        <time>2017-10-09T10:50:48Z</time>
      </trkpt>
      <trkpt lat="43.74691" lon="6.61049">
        <ele>1558</ele>
        <time>2017-10-09T10:50:55Z</time>
      </trkpt>
      <trkpt lat="43.74682" lon="6.61051">
        <ele>1559</ele>
        <time>2017-10-09T10:51:06Z</time>
      </trkpt>
      <trkpt lat="43.74677" lon="6.6105">
        <ele>1561</ele>
        <time>2017-10-09T10:51:16Z</time>
      </trkpt>
      <trkpt lat="43.74673" lon="6.61049">
        <ele>1561</ele>
        <time>2017-10-09T10:51:21Z</time>
      </trkpt>
      <trkpt lat="43.7466" lon="6.61051">
        <ele>1555</ele>
        <time>2017-10-09T10:51:44Z</time>
      </trkpt>
      <trkpt lat="43.74656" lon="6.61049">
        <ele>1554</ele>
        <time>2017-10-09T10:51:50Z</time>
      </trkpt>
      <trkpt lat="43.74646" lon="6.61049">
        <ele>1554</ele>
        <time>2017-10-09T10:52:06Z</time>
      </trkpt>
      <trkpt lat="43.74646" lon="6.61055">
        <ele>1553</ele>
        <time>2017-10-09T10:52:15Z</time>
      </trkpt>
      <trkpt lat="43.74643" lon="6.61058">
        <ele>1554</ele>
        <time>2017-10-09T10:53:12Z</time>
      </trkpt>
      <trkpt lat="43.74638" lon="6.61057">
        <ele>1555</ele>
        <time>2017-10-09T10:53:17Z</time>
      </trkpt>
      <trkpt lat="43.74638" lon="6.61052">
        <ele>1550</ele>
        <time>2017-10-09T10:53:28Z</time>
      </trkpt>
      <trkpt lat="43.74634" lon="6.61052">
        <ele>1548</ele>
        <time>2017-10-09T10:53:35Z</time>
      </trkpt>
      <trkpt lat="43.74629" lon="6.61052">
        <ele>1546</ele>
        <time>2017-10-09T10:53:42Z</time>
      </trkpt>
      <trkpt lat="43.74623" lon="6.61052">
        <ele>1543</ele>
        <time>2017-10-09T10:53:51Z</time>
      </trkpt>
      <trkpt lat="43.74619" lon="6.61054">
        <ele>1543</ele>
        <time>2017-10-09T10:53:56Z</time>
      </trkpt>
      <trkpt lat="43.74616" lon="6.6106">
        <ele>1544</ele>
        <time>2017-10-09T10:54:04Z</time>
      </trkpt>
      <trkpt lat="43.74608" lon="6.61066">
        <ele>1545</ele>
        <time>2017-10-09T10:54:20Z</time>
      </trkpt>
      <trkpt lat="43.74598" lon="6.61072">
        <ele>1539</ele>
        <time>2017-10-09T10:54:33Z</time>
      </trkpt>
      <trkpt lat="43.7459" lon="6.61076">
        <ele>1538</ele>
        <time>2017-10-09T10:54:38Z</time>
      </trkpt>
      <trkpt lat="43.74585" lon="6.61079">
        <ele>1538</ele>
        <time>2017-10-09T10:54:45Z</time>
      </trkpt>
      <trkpt lat="43.74579" lon="6.61086">
        <ele>1540</ele>
        <time>2017-10-09T10:54:49Z</time>
      </trkpt>
      <trkpt lat="43.74572" lon="6.61087">
        <ele>1541</ele>
        <time>2017-10-09T10:54:58Z</time>
      </trkpt>
      <trkpt lat="43.74567" lon="6.61089">
        <ele>1544</ele>
        <time>2017-10-09T10:55:10Z</time>
      </trkpt>
      <trkpt lat="43.74562" lon="6.6109">
        <ele>1543</ele>
        <time>2017-10-09T10:55:15Z</time>
      </trkpt>
      <trkpt lat="43.74557" lon="6.61093">
        <ele>1543</ele>
        <time>2017-10-09T10:55:20Z</time>
      </trkpt>
      <trkpt lat="43.74551" lon="6.61097">
        <ele>1542</ele>
        <time>2017-10-09T10:55:26Z</time>
      </trkpt>
      <trkpt lat="43.7454" lon="6.61109">
        <ele>1539</ele>
        <time>2017-10-09T10:55:43Z</time>
      </trkpt>
      <trkpt lat="43.74535" lon="6.61114">
        <ele>1533</ele>
        <time>2017-10-09T10:55:49Z</time>
      </trkpt>
      <trkpt lat="43.7453" lon="6.61119">
        <ele>1508</ele>
        <time>2017-10-09T10:55:54Z</time>
      </trkpt>
      <trkpt lat="43.74532" lon="6.61127">
        <ele>1512</ele>
        <time>2017-10-09T10:56:14Z</time>
      </trkpt>
      <trkpt lat="43.74521" lon="6.61137">
        <ele>1527</ele>
        <time>2017-10-09T10:56:33Z</time>
      </trkpt>
      <trkpt lat="43.74515" lon="6.61139">
        <ele>1531</ele>
        <time>2017-10-09T10:56:38Z</time>
      </trkpt>
      <trkpt lat="43.74509" lon="6.61143">
        <ele>1529</ele>
        <time>2017-10-09T10:56:45Z</time>
      </trkpt>
      <trkpt lat="43.74504" lon="6.61147">
        <ele>1524</ele>
        <time>2017-10-09T10:56:52Z</time>
      </trkpt>
      <trkpt lat="43.745" lon="6.61152">
        <ele>1523</ele>
        <time>2017-10-09T10:56:59Z</time>
      </trkpt>
      <trkpt lat="43.74496" lon="6.61156">
        <ele>1505</ele>
        <time>2017-10-09T10:57:14Z</time>
      </trkpt>
      <trkpt lat="43.74492" lon="6.61158">
        <ele>1513</ele>
        <time>2017-10-09T10:57:26Z</time>
      </trkpt>
      <trkpt lat="43.74481" lon="6.61168">
        <ele>1518</ele>
        <time>2017-10-09T10:57:39Z</time>
      </trkpt>
      <trkpt lat="43.7448" lon="6.61174">
        <ele>1520</ele>
        <time>2017-10-09T10:57:45Z</time>
      </trkpt>
      <trkpt lat="43.74484" lon="6.61175">
        <ele>1520</ele>
        <time>2017-10-09T10:57:49Z</time>
      </trkpt>
      <trkpt lat="43.74482" lon="6.61181">
        <ele>1518</ele>
        <time>2017-10-09T10:57:56Z</time>
      </trkpt>
      <trkpt lat="43.74477" lon="6.61185">
        <ele>1517</ele>
        <time>2017-10-09T10:58:01Z</time>
      </trkpt>
      <trkpt lat="43.74472" lon="6.61188">
        <ele>1532</ele>
        <time>2017-10-09T10:58:08Z</time>
      </trkpt>
      <trkpt lat="43.74464" lon="6.61193">
        <ele>1512</ele>
        <time>2017-10-09T10:58:22Z</time>
      </trkpt>
      <trkpt lat="43.74459" lon="6.61197">
        <ele>1512</ele>
        <time>2017-10-09T10:58:28Z</time>
      </trkpt>
      <trkpt lat="43.74453" lon="6.61206">
        <ele>1478</ele>
        <time>2017-10-09T10:58:51Z</time>
      </trkpt>
      <trkpt lat="43.74449" lon="6.61209">
        <ele>1506</ele>
        <time>2017-10-09T10:59:03Z</time>
      </trkpt>
      <trkpt lat="43.74441" lon="6.6121">
        <ele>1507</ele>
        <time>2017-10-09T10:59:17Z</time>
      </trkpt>
      <trkpt lat="43.74437" lon="6.61213">
        <ele>1507</ele>
        <time>2017-10-09T10:59:22Z</time>
      </trkpt>
      <trkpt lat="43.74433" lon="6.61216">
        <ele>1507</ele>
        <time>2017-10-09T10:59:27Z</time>
      </trkpt>
      <trkpt lat="43.74429" lon="6.61219">
        <ele>1506</ele>
        <time>2017-10-09T10:59:32Z</time>
      </trkpt>
      <trkpt lat="43.7442" lon="6.61221">
        <ele>1505</ele>
        <time>2017-10-09T10:59:42Z</time>
      </trkpt>
      <trkpt lat="43.74412" lon="6.61228">
        <ele>1503</ele>
        <time>2017-10-09T10:59:52Z</time>
      </trkpt>
      <trkpt lat="43.74413" lon="6.61236">
        <ele>1498</ele>
        <time>2017-10-09T11:00:04Z</time>
      </trkpt>
      <trkpt lat="43.74409" lon="6.61237">
        <ele>1497</ele>
        <time>2017-10-09T11:00:09Z</time>
      </trkpt>
      <trkpt lat="43.74405" lon="6.61236">
        <ele>1495</ele>
        <time>2017-10-09T11:00:21Z</time>
      </trkpt>
      <trkpt lat="43.74406" lon="6.61237">
        <ele>1498</ele>
        <time>2017-10-09T11:02:08Z</time>
      </trkpt>
      <trkpt lat="43.74405" lon="6.61235">
        <ele>1496</ele>
        <time>2017-10-09T11:02:56Z</time>
      </trkpt>
      <trkpt lat="43.74411" lon="6.61232">
        <ele>1495</ele>
        <time>2017-10-09T11:03:17Z</time>
      </trkpt>
      <trkpt lat="43.74411" lon="6.61224">
        <ele>1498</ele>
        <time>2017-10-09T11:03:22Z</time>
      </trkpt>
      <trkpt lat="43.74413" lon="6.61208">
        <ele>1501</ele>
        <time>2017-10-09T11:03:31Z</time>
      </trkpt>
      <trkpt lat="43.74416" lon="6.61202">
        <ele>1501</ele>
        <time>2017-10-09T11:03:50Z</time>
      </trkpt>
      <trkpt lat="43.74419" lon="6.61194">
        <ele>1499</ele>
        <time>2017-10-09T11:04:00Z</time>
      </trkpt>
      <trkpt lat="43.74421" lon="6.61188">
        <ele>1498</ele>
        <time>2017-10-09T11:04:05Z</time>
      </trkpt>
      <trkpt lat="43.74423" lon="6.61182">
        <ele>1501</ele>
        <time>2017-10-09T11:04:16Z</time>
      </trkpt>
      <trkpt lat="43.74424" lon="6.61172">
        <ele>1502</ele>
        <time>2017-10-09T11:04:24Z</time>
      </trkpt>
      <trkpt lat="43.74426" lon="6.61165">
        <ele>1504</ele>
        <time>2017-10-09T11:04:27Z</time>
      </trkpt>
      <trkpt lat="43.7443" lon="6.61168">
        <ele>1503</ele>
        <time>2017-10-09T11:04:35Z</time>
      </trkpt>
      <trkpt lat="43.74435" lon="6.61168">
        <ele>1503</ele>
        <time>2017-10-09T11:04:47Z</time>
      </trkpt>
      <trkpt lat="43.74438" lon="6.61161">
        <ele>1505</ele>
        <time>2017-10-09T11:04:59Z</time>
      </trkpt>
      <trkpt lat="43.74443" lon="6.6116">
        <ele>1500</ele>
        <time>2017-10-09T11:05:05Z</time>
      </trkpt>
      <trkpt lat="43.74446" lon="6.61157">
        <ele>1500</ele>
        <time>2017-10-09T11:05:11Z</time>
      </trkpt>
      <trkpt lat="43.74453" lon="6.61155">
        <ele>1507</ele>
        <time>2017-10-09T11:05:26Z</time>
      </trkpt>
      <trkpt lat="43.74454" lon="6.61149">
        <ele>1506</ele>
        <time>2017-10-09T11:05:31Z</time>
      </trkpt>
      <trkpt lat="43.74457" lon="6.61141">
        <ele>1508</ele>
        <time>2017-10-09T11:05:41Z</time>
      </trkpt>
      <trkpt lat="43.74457" lon="6.61135">
        <ele>1510</ele>
        <time>2017-10-09T11:05:44Z</time>
      </trkpt>
      <trkpt lat="43.74458" lon="6.61129">
        <ele>1510</ele>
        <time>2017-10-09T11:05:49Z</time>
      </trkpt>
      <trkpt lat="43.74461" lon="6.61124">
        <ele>1509</ele>
        <time>2017-10-09T11:05:59Z</time>
      </trkpt>
      <trkpt lat="43.74463" lon="6.61116">
        <ele>1508</ele>
        <time>2017-10-09T11:06:09Z</time>
      </trkpt>
      <trkpt lat="43.74463" lon="6.61109">
        <ele>1506</ele>
        <time>2017-10-09T11:06:17Z</time>
      </trkpt>
      <trkpt lat="43.74463" lon="6.61103">
        <ele>1506</ele>
        <time>2017-10-09T11:06:21Z</time>
      </trkpt>
      <trkpt lat="43.74467" lon="6.611">
        <ele>1506</ele>
        <time>2017-10-09T11:06:28Z</time>
      </trkpt>
      <trkpt lat="43.7447" lon="6.61093">
        <ele>1506</ele>
        <time>2017-10-09T11:06:34Z</time>
      </trkpt>
      <trkpt lat="43.74472" lon="6.61087">
        <ele>1508</ele>
        <time>2017-10-09T11:06:38Z</time>
      </trkpt>
      <trkpt lat="43.74472" lon="6.61079">
        <ele>1507</ele>
        <time>2017-10-09T11:07:05Z</time>
      </trkpt>
      <trkpt lat="43.74474" lon="6.61068">
        <ele>1505</ele>
        <time>2017-10-09T11:07:19Z</time>
      </trkpt>
      <trkpt lat="43.74475" lon="6.61058">
        <ele>1508</ele>
        <time>2017-10-09T11:07:23Z</time>
      </trkpt>
      <trkpt lat="43.74482" lon="6.61035">
        <ele>1510</ele>
        <time>2017-10-09T11:07:34Z</time>
      </trkpt>
      <trkpt lat="43.74479" lon="6.61031">
        <ele>1507</ele>
        <time>2017-10-09T11:07:52Z</time>
      </trkpt>
      <trkpt lat="43.7448" lon="6.61023">
        <ele>1504</ele>
        <time>2017-10-09T11:08:06Z</time>
      </trkpt>
      <trkpt lat="43.74482" lon="6.61015">
        <ele>1503</ele>
        <time>2017-10-09T11:08:14Z</time>
      </trkpt>
      <trkpt lat="43.74482" lon="6.6101">
        <ele>1504</ele>
        <time>2017-10-09T11:08:21Z</time>
      </trkpt>
      <trkpt lat="43.74485" lon="6.61005">
        <ele>1505</ele>
        <time>2017-10-09T11:08:27Z</time>
      </trkpt>
      <trkpt lat="43.74489" lon="6.61004">
        <ele>1504</ele>
        <time>2017-10-09T11:08:34Z</time>
      </trkpt>
      <trkpt lat="43.74493" lon="6.6099">
        <ele>1505</ele>
        <time>2017-10-09T11:08:45Z</time>
      </trkpt>
      <trkpt lat="43.74494" lon="6.60984">
        <ele>1506</ele>
        <time>2017-10-09T11:08:50Z</time>
      </trkpt>
      <trkpt lat="43.74496" lon="6.60971">
        <ele>1505</ele>
        <time>2017-10-09T11:09:09Z</time>
      </trkpt>
      <trkpt lat="43.74498" lon="6.60965">
        <ele>1501</ele>
        <time>2017-10-09T11:09:24Z</time>
      </trkpt>
      <trkpt lat="43.74499" lon="6.60931">
        <ele>1493</ele>
        <time>2017-10-09T11:09:47Z</time>
      </trkpt>
      <trkpt lat="43.74502" lon="6.60926">
        <ele>1497</ele>
        <time>2017-10-09T11:09:52Z</time>
      </trkpt>
      <trkpt lat="43.74503" lon="6.6092">
        <ele>1499</ele>
        <time>2017-10-09T11:10:00Z</time>
      </trkpt>
      <trkpt lat="43.74505" lon="6.60915">
        <ele>1501</ele>
        <time>2017-10-09T11:10:07Z</time>
      </trkpt>
      <trkpt lat="43.74507" lon="6.6091">
        <ele>1501</ele>
        <time>2017-10-09T11:10:17Z</time>
      </trkpt>
      <trkpt lat="43.74509" lon="6.60904">
        <ele>1500</ele>
        <time>2017-10-09T11:10:22Z</time>
      </trkpt>
      <trkpt lat="43.74512" lon="6.60892">
        <ele>1500</ele>
        <time>2017-10-09T11:10:34Z</time>
      </trkpt>
      <trkpt lat="43.74516" lon="6.60882">
        <ele>1501</ele>
        <time>2017-10-09T11:10:46Z</time>
      </trkpt>
      <trkpt lat="43.74516" lon="6.60876">
        <ele>1501</ele>
        <time>2017-10-09T11:10:51Z</time>
      </trkpt>
      <trkpt lat="43.74516" lon="6.6087">
        <ele>1501</ele>
        <time>2017-10-09T11:10:58Z</time>
      </trkpt>
      <trkpt lat="43.74512" lon="6.60867">
        <ele>1500</ele>
        <time>2017-10-09T11:11:03Z</time>
      </trkpt>
      <trkpt lat="43.74503" lon="6.60847">
        <ele>1498</ele>
        <time>2017-10-09T11:11:29Z</time>
      </trkpt>
      <trkpt lat="43.74499" lon="6.60843">
        <ele>1497</ele>
        <time>2017-10-09T11:11:35Z</time>
      </trkpt>
      <trkpt lat="43.74497" lon="6.60838">
        <ele>1497</ele>
        <time>2017-10-09T11:11:43Z</time>
      </trkpt>
      <trkpt lat="43.74497" lon="6.60832">
        <ele>1497</ele>
        <time>2017-10-09T11:11:50Z</time>
      </trkpt>
      <trkpt lat="43.74492" lon="6.60822">
        <ele>1495</ele>
        <time>2017-10-09T11:12:04Z</time>
      </trkpt>
      <trkpt lat="43.74493" lon="6.60816">
        <ele>1493</ele>
        <time>2017-10-09T11:12:12Z</time>
      </trkpt>
      <trkpt lat="43.74492" lon="6.6081">
        <ele>1491</ele>
        <time>2017-10-09T11:12:18Z</time>
      </trkpt>
      <trkpt lat="43.74492" lon="6.60804">
        <ele>1491</ele>
        <time>2017-10-09T11:12:26Z</time>
      </trkpt>
      <trkpt lat="43.74489" lon="6.608">
        <ele>1488</ele>
        <time>2017-10-09T11:12:34Z</time>
      </trkpt>
      <trkpt lat="43.74484" lon="6.60788">
        <ele>1486</ele>
        <time>2017-10-09T11:12:51Z</time>
      </trkpt>
      <trkpt lat="43.74484" lon="6.60782">
        <ele>1485</ele>
        <time>2017-10-09T11:12:59Z</time>
      </trkpt>
      <trkpt lat="43.74476" lon="6.60777">
        <ele>1480</ele>
        <time>2017-10-09T11:13:14Z</time>
      </trkpt>
      <trkpt lat="43.74473" lon="6.60774">
        <ele>1476</ele>
        <time>2017-10-09T11:13:33Z</time>
      </trkpt>
      <trkpt lat="43.74471" lon="6.60769">
        <ele>1475</ele>
        <time>2017-10-09T11:14:12Z</time>
      </trkpt>
      <trkpt lat="43.74466" lon="6.6077">
        <ele>1472</ele>
        <time>2017-10-09T11:14:19Z</time>
      </trkpt>
      <trkpt lat="43.74462" lon="6.6077">
        <ele>1471</ele>
        <time>2017-10-09T11:14:27Z</time>
      </trkpt>
      <trkpt lat="43.74458" lon="6.60767">
        <ele>1471</ele>
        <time>2017-10-09T11:14:37Z</time>
      </trkpt>
      <trkpt lat="43.74456" lon="6.60762">
        <ele>1470</ele>
        <time>2017-10-09T11:14:46Z</time>
      </trkpt>
      <trkpt lat="43.74452" lon="6.6076">
        <ele>1467</ele>
        <time>2017-10-09T11:14:54Z</time>
      </trkpt>
      <trkpt lat="43.74448" lon="6.6076">
        <ele>1466</ele>
        <time>2017-10-09T11:15:10Z</time>
      </trkpt>
      <trkpt lat="43.74444" lon="6.60757">
        <ele>1464</ele>
        <time>2017-10-09T11:15:19Z</time>
      </trkpt>
      <trkpt lat="43.74438" lon="6.60748">
        <ele>1463</ele>
        <time>2017-10-09T11:15:47Z</time>
      </trkpt>
      <trkpt lat="43.74438" lon="6.60741">
        <ele>1461</ele>
        <time>2017-10-09T11:15:57Z</time>
      </trkpt>
      <trkpt lat="43.74438" lon="6.60735">
        <ele>1459</ele>
        <time>2017-10-09T11:16:05Z</time>
      </trkpt>
      <trkpt lat="43.74434" lon="6.60731">
        <ele>1459</ele>
        <time>2017-10-09T11:16:11Z</time>
      </trkpt>
      <trkpt lat="43.7443" lon="6.6073">
        <ele>1457</ele>
        <time>2017-10-09T11:16:17Z</time>
      </trkpt>
      <trkpt lat="43.74427" lon="6.60726">
        <ele>1456</ele>
        <time>2017-10-09T11:16:23Z</time>
      </trkpt>
      <trkpt lat="43.74425" lon="6.60721">
        <ele>1454</ele>
        <time>2017-10-09T11:16:35Z</time>
      </trkpt>
      <trkpt lat="43.74422" lon="6.60716">
        <ele>1453</ele>
        <time>2017-10-09T11:16:41Z</time>
      </trkpt>
      <trkpt lat="43.74414" lon="6.60701">
        <ele>1448</ele>
        <time>2017-10-09T11:17:02Z</time>
      </trkpt>
      <trkpt lat="43.74413" lon="6.60696">
        <ele>1448</ele>
        <time>2017-10-09T11:17:08Z</time>
      </trkpt>
      <trkpt lat="43.74409" lon="6.60694">
        <ele>1445</ele>
        <time>2017-10-09T11:17:14Z</time>
      </trkpt>
      <trkpt lat="43.74406" lon="6.6069">
        <ele>1443</ele>
        <time>2017-10-09T11:17:24Z</time>
      </trkpt>
      <trkpt lat="43.74402" lon="6.60688">
        <ele>1441</ele>
        <time>2017-10-09T11:17:32Z</time>
      </trkpt>
      <trkpt lat="43.74398" lon="6.60685">
        <ele>1440</ele>
        <time>2017-10-09T11:17:40Z</time>
      </trkpt>
      <trkpt lat="43.74398" lon="6.60679">
        <ele>1439</ele>
        <time>2017-10-09T11:17:58Z</time>
      </trkpt>
      <trkpt lat="43.744" lon="6.60673">
        <ele>1439</ele>
        <time>2017-10-09T11:18:08Z</time>
      </trkpt>
      <trkpt lat="43.74398" lon="6.60668">
        <ele>1437</ele>
        <time>2017-10-09T11:18:15Z</time>
      </trkpt>
      <trkpt lat="43.74399" lon="6.60661">
        <ele>1435</ele>
        <time>2017-10-09T11:18:27Z</time>
      </trkpt>
      <trkpt lat="43.744" lon="6.60655">
        <ele>1442</ele>
        <time>2017-10-09T11:18:33Z</time>
      </trkpt>
      <trkpt lat="43.74404" lon="6.60652">
        <ele>1441</ele>
        <time>2017-10-09T11:18:38Z</time>
      </trkpt>
      <trkpt lat="43.74406" lon="6.60647">
        <ele>1439</ele>
        <time>2017-10-09T11:18:46Z</time>
      </trkpt>
      <trkpt lat="43.74406" lon="6.60641">
        <ele>1435</ele>
        <time>2017-10-09T11:18:58Z</time>
      </trkpt>
      <trkpt lat="43.74405" lon="6.60635">
        <ele>1434</ele>
        <time>2017-10-09T11:19:05Z</time>
      </trkpt>
      <trkpt lat="43.74405" lon="6.60629">
        <ele>1432</ele>
        <time>2017-10-09T11:19:10Z</time>
      </trkpt>
      <trkpt lat="43.74403" lon="6.60623">
        <ele>1430</ele>
        <time>2017-10-09T11:19:18Z</time>
      </trkpt>
      <trkpt lat="43.74403" lon="6.60617">
        <ele>1429</ele>
        <time>2017-10-09T11:19:26Z</time>
      </trkpt>
      <trkpt lat="43.74399" lon="6.60612">
        <ele>1428</ele>
        <time>2017-10-09T11:19:31Z</time>
      </trkpt>
      <trkpt lat="43.74397" lon="6.60607">
        <ele>1427</ele>
        <time>2017-10-09T11:19:36Z</time>
      </trkpt>
      <trkpt lat="43.744" lon="6.60595">
        <ele>1426</ele>
        <time>2017-10-09T11:19:47Z</time>
      </trkpt>
      <trkpt lat="43.74397" lon="6.60591">
        <ele>1425</ele>
        <time>2017-10-09T11:19:55Z</time>
      </trkpt>
      <trkpt lat="43.74396" lon="6.60585">
        <ele>1422</ele>
        <time>2017-10-09T11:20:02Z</time>
      </trkpt>
      <trkpt lat="43.74393" lon="6.60578">
        <ele>1420</ele>
        <time>2017-10-09T11:20:10Z</time>
      </trkpt>
      <trkpt lat="43.74391" lon="6.60572">
        <ele>1421</ele>
        <time>2017-10-09T11:20:17Z</time>
      </trkpt>
      <trkpt lat="43.74388" lon="6.60568">
        <ele>1421</ele>
        <time>2017-10-09T11:20:23Z</time>
      </trkpt>
      <trkpt lat="43.74384" lon="6.60565">
        <ele>1431</ele>
        <time>2017-10-09T11:20:33Z</time>
      </trkpt>
      <trkpt lat="43.74382" lon="6.6056">
        <ele>1426</ele>
        <time>2017-10-09T11:20:40Z</time>
      </trkpt>
      <trkpt lat="43.74379" lon="6.60556">
        <ele>1416</ele>
        <time>2017-10-09T11:20:48Z</time>
      </trkpt>
      <trkpt lat="43.74375" lon="6.60554">
        <ele>1416</ele>
        <time>2017-10-09T11:20:53Z</time>
      </trkpt>
      <trkpt lat="43.74373" lon="6.60549">
        <ele>1417</ele>
        <time>2017-10-09T11:20:59Z</time>
      </trkpt>
      <trkpt lat="43.74366" lon="6.60543">
        <ele>1414</ele>
        <time>2017-10-09T11:21:11Z</time>
      </trkpt>
      <trkpt lat="43.74361" lon="6.60542">
        <ele>1414</ele>
        <time>2017-10-09T11:21:18Z</time>
      </trkpt>
      <trkpt lat="43.74354" lon="6.60549">
        <ele>1414</ele>
        <time>2017-10-09T11:21:33Z</time>
      </trkpt>
      <trkpt lat="43.74351" lon="6.60547">
        <ele>1412</ele>
        <time>2017-10-09T11:21:39Z</time>
      </trkpt>
      <trkpt lat="43.74347" lon="6.60544">
        <ele>1411</ele>
        <time>2017-10-09T11:21:46Z</time>
      </trkpt>
      <trkpt lat="43.74347" lon="6.60538">
        <ele>1410</ele>
        <time>2017-10-09T11:23:18Z</time>
      </trkpt>
      <trkpt lat="43.74348" lon="6.60531">
        <ele>1416</ele>
        <time>2017-10-09T11:23:31Z</time>
      </trkpt>
      <trkpt lat="43.74345" lon="6.60519">
        <ele>1411</ele>
        <time>2017-10-09T11:23:43Z</time>
      </trkpt>
      <trkpt lat="43.74345" lon="6.60514">
        <ele>1406</ele>
        <time>2017-10-09T11:23:49Z</time>
      </trkpt>
      <trkpt lat="43.7435" lon="6.60496">
        <ele>1405</ele>
        <time>2017-10-09T11:24:10Z</time>
      </trkpt>
      <trkpt lat="43.74347" lon="6.60491">
        <ele>1404</ele>
        <time>2017-10-09T11:24:17Z</time>
      </trkpt>
      <trkpt lat="43.74343" lon="6.60491">
        <ele>1404</ele>
        <time>2017-10-09T11:24:21Z</time>
      </trkpt>
      <trkpt lat="43.74337" lon="6.60499">
        <ele>1404</ele>
        <time>2017-10-09T11:24:39Z</time>
      </trkpt>
      <trkpt lat="43.74332" lon="6.60501">
        <ele>1403</ele>
        <time>2017-10-09T11:24:45Z</time>
      </trkpt>
      <trkpt lat="43.74329" lon="6.60504">
        <ele>1402</ele>
        <time>2017-10-09T11:24:50Z</time>
      </trkpt>
      <trkpt lat="43.74326" lon="6.6051">
        <ele>1400</ele>
        <time>2017-10-09T11:24:57Z</time>
      </trkpt>
      <trkpt lat="43.74321" lon="6.605">
        <ele>1394</ele>
        <time>2017-10-09T11:25:26Z</time>
      </trkpt>
      <trkpt lat="43.74317" lon="6.60498">
        <ele>1393</ele>
        <time>2017-10-09T11:25:32Z</time>
      </trkpt>
      <trkpt lat="43.74313" lon="6.605">
        <ele>1392</ele>
        <time>2017-10-09T11:25:39Z</time>
      </trkpt>
      <trkpt lat="43.74309" lon="6.60501">
        <ele>1391</ele>
        <time>2017-10-09T11:25:50Z</time>
      </trkpt>
      <trkpt lat="43.74308" lon="6.60508">
        <ele>1391</ele>
        <time>2017-10-09T11:26:27Z</time>
      </trkpt>
      <trkpt lat="43.74301" lon="6.60516">
        <ele>1390</ele>
        <time>2017-10-09T11:26:41Z</time>
      </trkpt>
      <trkpt lat="43.74299" lon="6.60521">
        <ele>1387</ele>
        <time>2017-10-09T11:26:47Z</time>
      </trkpt>
      <trkpt lat="43.74297" lon="6.60516">
        <ele>1386</ele>
        <time>2017-10-09T11:27:01Z</time>
      </trkpt>
      <trkpt lat="43.74291" lon="6.60525">
        <ele>1384</ele>
        <time>2017-10-09T11:27:19Z</time>
      </trkpt>
      <trkpt lat="43.7429" lon="6.6053">
        <ele>1383</ele>
        <time>2017-10-09T11:27:27Z</time>
      </trkpt>
      <trkpt lat="43.74286" lon="6.60527">
        <ele>1381</ele>
        <time>2017-10-09T11:27:38Z</time>
      </trkpt>
      <trkpt lat="43.74285" lon="6.60522">
        <ele>1380</ele>
        <time>2017-10-09T11:27:46Z</time>
      </trkpt>
      <trkpt lat="43.74282" lon="6.60504">
        <ele>1376</ele>
        <time>2017-10-09T11:28:06Z</time>
      </trkpt>
      <trkpt lat="43.74278" lon="6.60506">
        <ele>1377</ele>
        <time>2017-10-09T11:28:13Z</time>
      </trkpt>
      <trkpt lat="43.74269" lon="6.60534">
        <ele>1372</ele>
        <time>2017-10-09T11:28:44Z</time>
      </trkpt>
      <trkpt lat="43.74267" lon="6.6054">
        <ele>1372</ele>
        <time>2017-10-09T11:28:53Z</time>
      </trkpt>
      <trkpt lat="43.74262" lon="6.6055">
        <ele>1370</ele>
        <time>2017-10-09T11:29:09Z</time>
      </trkpt>
      <trkpt lat="43.74261" lon="6.60557">
        <ele>1369</ele>
        <time>2017-10-09T11:29:15Z</time>
      </trkpt>
      <trkpt lat="43.74256" lon="6.60568">
        <ele>1367</ele>
        <time>2017-10-09T11:29:29Z</time>
      </trkpt>
      <trkpt lat="43.7425" lon="6.60591">
        <ele>1363</ele>
        <time>2017-10-09T11:29:55Z</time>
      </trkpt>
      <trkpt lat="43.74248" lon="6.60597">
        <ele>1373</ele>
        <time>2017-10-09T11:30:01Z</time>
      </trkpt>
      <trkpt lat="43.74245" lon="6.60608">
        <ele>1363</ele>
        <time>2017-10-09T11:30:17Z</time>
      </trkpt>
      <trkpt lat="43.74244" lon="6.60615">
        <ele>1380</ele>
        <time>2017-10-09T11:30:24Z</time>
      </trkpt>
      <trkpt lat="43.74242" lon="6.60621">
        <ele>1379</ele>
        <time>2017-10-09T11:30:33Z</time>
      </trkpt>
      <trkpt lat="43.74238" lon="6.60621">
        <ele>1364</ele>
        <time>2017-10-09T11:30:39Z</time>
      </trkpt>
      <trkpt lat="43.74234" lon="6.60619">
        <ele>1360</ele>
        <time>2017-10-09T11:30:54Z</time>
      </trkpt>
      <trkpt lat="43.74231" lon="6.60615">
        <ele>1355</ele>
        <time>2017-10-09T11:31:00Z</time>
      </trkpt>
      <trkpt lat="43.74228" lon="6.60619">
        <ele>1354</ele>
        <time>2017-10-09T11:31:22Z</time>
      </trkpt>
      <trkpt lat="43.7423" lon="6.60627">
        <ele>1353</ele>
        <time>2017-10-09T11:31:33Z</time>
      </trkpt>
      <trkpt lat="43.74232" lon="6.60635">
        <ele>1351</ele>
        <time>2017-10-09T11:31:57Z</time>
      </trkpt>
      <trkpt lat="43.7423" lon="6.60655">
        <ele>1348</ele>
        <time>2017-10-09T11:32:14Z</time>
      </trkpt>
      <trkpt lat="43.74229" lon="6.60661">
        <ele>1348</ele>
        <time>2017-10-09T11:32:19Z</time>
      </trkpt>
      <trkpt lat="43.74229" lon="6.60669">
        <ele>1346</ele>
        <time>2017-10-09T11:32:28Z</time>
      </trkpt>
      <trkpt lat="43.74229" lon="6.60676">
        <ele>1345</ele>
        <time>2017-10-09T11:32:35Z</time>
      </trkpt>
      <trkpt lat="43.74223" lon="6.60706">
        <ele>1339</ele>
        <time>2017-10-09T11:33:07Z</time>
      </trkpt>
      <trkpt lat="43.74222" lon="6.60737">
        <ele>1335</ele>
        <time>2017-10-09T11:33:37Z</time>
      </trkpt>
      <trkpt lat="43.7422" lon="6.60742">
        <ele>1334</ele>
        <time>2017-10-09T11:33:44Z</time>
      </trkpt>
      <trkpt lat="43.74219" lon="6.60748">
        <ele>1333</ele>
        <time>2017-10-09T11:33:57Z</time>
      </trkpt>
      <trkpt lat="43.74216" lon="6.6076">
        <ele>1327</ele>
        <time>2017-10-09T11:34:10Z</time>
      </trkpt>
      <trkpt lat="43.74215" lon="6.60766">
        <ele>1326</ele>
        <time>2017-10-09T11:34:16Z</time>
      </trkpt>
      <trkpt lat="43.74211" lon="6.60768">
        <ele>1325</ele>
        <time>2017-10-09T11:34:24Z</time>
      </trkpt>
      <trkpt lat="43.74208" lon="6.60764">
        <ele>1325</ele>
        <time>2017-10-09T11:34:31Z</time>
      </trkpt>
      <trkpt lat="43.74204" lon="6.60765">
        <ele>1326</ele>
        <time>2017-10-09T11:34:49Z</time>
      </trkpt>
      <trkpt lat="43.74202" lon="6.6076">
        <ele>1326</ele>
        <time>2017-10-09T11:34:56Z</time>
      </trkpt>
      <trkpt lat="43.742" lon="6.60754">
        <ele>1340</ele>
        <time>2017-10-09T11:35:03Z</time>
      </trkpt>
      <trkpt lat="43.74194" lon="6.60739">
        <ele>1323</ele>
        <time>2017-10-09T11:35:20Z</time>
      </trkpt>
      <trkpt lat="43.7419" lon="6.60739">
        <ele>1320</ele>
        <time>2017-10-09T11:35:37Z</time>
      </trkpt>
      <trkpt lat="43.74191" lon="6.60745">
        <ele>1318</ele>
        <time>2017-10-09T11:35:45Z</time>
      </trkpt>
      <trkpt lat="43.74189" lon="6.60751">
        <ele>1314</ele>
        <time>2017-10-09T11:35:51Z</time>
      </trkpt>
      <trkpt lat="43.74188" lon="6.60757">
        <ele>1313</ele>
        <time>2017-10-09T11:35:57Z</time>
      </trkpt>
      <trkpt lat="43.74187" lon="6.60763">
        <ele>1311</ele>
        <time>2017-10-09T11:36:03Z</time>
      </trkpt>
      <trkpt lat="43.74185" lon="6.6077">
        <ele>1310</ele>
        <time>2017-10-09T11:36:09Z</time>
      </trkpt>
      <trkpt lat="43.74181" lon="6.60768">
        <ele>1310</ele>
        <time>2017-10-09T11:36:17Z</time>
      </trkpt>
      <trkpt lat="43.74178" lon="6.60764">
        <ele>1308</ele>
        <time>2017-10-09T11:36:23Z</time>
      </trkpt>
      <trkpt lat="43.74177" lon="6.6077">
        <ele>1307</ele>
        <time>2017-10-09T11:36:30Z</time>
      </trkpt>
      <trkpt lat="43.74177" lon="6.60777">
        <ele>1307</ele>
        <time>2017-10-09T11:36:35Z</time>
      </trkpt>
      <trkpt lat="43.74177" lon="6.60783">
        <ele>1306</ele>
        <time>2017-10-09T11:36:42Z</time>
      </trkpt>
      <trkpt lat="43.74175" lon="6.60789">
        <ele>1303</ele>
        <time>2017-10-09T11:36:49Z</time>
      </trkpt>
      <trkpt lat="43.74173" lon="6.60794">
        <ele>1303</ele>
        <time>2017-10-09T11:36:56Z</time>
      </trkpt>
      <trkpt lat="43.74171" lon="6.60799">
        <ele>1302</ele>
        <time>2017-10-09T11:37:03Z</time>
      </trkpt>
      <trkpt lat="43.74167" lon="6.60811">
        <ele>1300</ele>
        <time>2017-10-09T11:37:15Z</time>
      </trkpt>
      <trkpt lat="43.74166" lon="6.60817">
        <ele>1298</ele>
        <time>2017-10-09T11:37:25Z</time>
      </trkpt>
      <trkpt lat="43.74164" lon="6.60821">
        <ele>1297</ele>
        <time>2017-10-09T11:37:37Z</time>
      </trkpt>
      <trkpt lat="43.74161" lon="6.60829">
        <ele>1297</ele>
        <time>2017-10-09T11:42:06Z</time>
      </trkpt>
      <trkpt lat="43.74157" lon="6.60829">
        <ele>1292</ele>
        <time>2017-10-09T11:42:16Z</time>
      </trkpt>
      <trkpt lat="43.74156" lon="6.60822">
        <ele>1292</ele>
        <time>2017-10-09T11:42:22Z</time>
      </trkpt>
      <trkpt lat="43.74153" lon="6.60818">
        <ele>1292</ele>
        <time>2017-10-09T11:42:27Z</time>
      </trkpt>
      <trkpt lat="43.74148" lon="6.608">
        <ele>1291</ele>
        <time>2017-10-09T11:42:48Z</time>
      </trkpt>
      <trkpt lat="43.74146" lon="6.60795">
        <ele>1290</ele>
        <time>2017-10-09T11:42:54Z</time>
      </trkpt>
      <trkpt lat="43.74144" lon="6.6079">
        <ele>1289</ele>
        <time>2017-10-09T11:42:59Z</time>
      </trkpt>
      <trkpt lat="43.7414" lon="6.60778">
        <ele>1288</ele>
        <time>2017-10-09T11:43:09Z</time>
      </trkpt>
      <trkpt lat="43.74138" lon="6.60772">
        <ele>1287</ele>
        <time>2017-10-09T11:43:17Z</time>
      </trkpt>
      <trkpt lat="43.74135" lon="6.60776">
        <ele>1286</ele>
        <time>2017-10-09T11:43:27Z</time>
      </trkpt>
      <trkpt lat="43.74135" lon="6.60782">
        <ele>1285</ele>
        <time>2017-10-09T11:43:34Z</time>
      </trkpt>
      <trkpt lat="43.74131" lon="6.60784">
        <ele>1280</ele>
        <time>2017-10-09T11:43:46Z</time>
      </trkpt>
      <trkpt lat="43.74128" lon="6.6078">
        <ele>1279</ele>
        <time>2017-10-09T11:43:53Z</time>
      </trkpt>
      <trkpt lat="43.74125" lon="6.60776">
        <ele>1277</ele>
        <time>2017-10-09T11:43:59Z</time>
      </trkpt>
      <trkpt lat="43.74118" lon="6.60761">
        <ele>1277</ele>
        <time>2017-10-09T11:44:15Z</time>
      </trkpt>
      <trkpt lat="43.74113" lon="6.6075">
        <ele>1273</ele>
        <time>2017-10-09T11:44:31Z</time>
      </trkpt>
      <trkpt lat="43.74109" lon="6.60741">
        <ele>1272</ele>
        <time>2017-10-09T11:44:41Z</time>
      </trkpt>
      <trkpt lat="43.74108" lon="6.60746">
        <ele>1272</ele>
        <time>2017-10-09T11:45:05Z</time>
      </trkpt>
      <trkpt lat="43.74109" lon="6.60753">
        <ele>1269</ele>
        <time>2017-10-09T11:45:14Z</time>
      </trkpt>
      <trkpt lat="43.74106" lon="6.60757">
        <ele>1267</ele>
        <time>2017-10-09T11:45:21Z</time>
      </trkpt>
      <trkpt lat="43.74098" lon="6.60779">
        <ele>1256</ele>
        <time>2017-10-09T11:45:54Z</time>
      </trkpt>
      <trkpt lat="43.74097" lon="6.60785">
        <ele>1254</ele>
        <time>2017-10-09T11:46:01Z</time>
      </trkpt>
      <trkpt lat="43.74096" lon="6.60792">
        <ele>1254</ele>
        <time>2017-10-09T11:46:06Z</time>
      </trkpt>
      <trkpt lat="43.74096" lon="6.60803">
        <ele>1252</ele>
        <time>2017-10-09T11:46:17Z</time>
      </trkpt>
      <trkpt lat="43.74094" lon="6.6081">
        <ele>1251</ele>
        <time>2017-10-09T11:46:26Z</time>
      </trkpt>
      <trkpt lat="43.74088" lon="6.60814">
        <ele>1248</ele>
        <time>2017-10-09T11:46:33Z</time>
      </trkpt>
      <trkpt lat="43.74083" lon="6.60816">
        <ele>1267</ele>
        <time>2017-10-09T11:46:41Z</time>
      </trkpt>
      <trkpt lat="43.74079" lon="6.60813">
        <ele>1272</ele>
        <time>2017-10-09T11:46:48Z</time>
      </trkpt>
      <trkpt lat="43.74075" lon="6.60816">
        <ele>1262</ele>
        <time>2017-10-09T11:46:58Z</time>
      </trkpt>
      <trkpt lat="43.74074" lon="6.60822">
        <ele>1303</ele>
        <time>2017-10-09T11:47:09Z</time>
      </trkpt>
      <trkpt lat="43.7407" lon="6.60819">
        <ele>1285</ele>
        <time>2017-10-09T11:47:17Z</time>
      </trkpt>
      <trkpt lat="43.7407" lon="6.60813">
        <ele>1266</ele>
        <time>2017-10-09T11:47:29Z</time>
      </trkpt>
      <trkpt lat="43.74061" lon="6.60817">
        <ele>1242</ele>
        <time>2017-10-09T11:47:52Z</time>
      </trkpt>
      <trkpt lat="43.74059" lon="6.60821">
        <ele>1239</ele>
        <time>2017-10-09T11:47:58Z</time>
      </trkpt>
      <trkpt lat="43.74056" lon="6.60816">
        <ele>1237</ele>
        <time>2017-10-09T11:48:13Z</time>
      </trkpt>
      <trkpt lat="43.74057" lon="6.60809">
        <ele>1237</ele>
        <time>2017-10-09T11:48:21Z</time>
      </trkpt>
      <trkpt lat="43.74057" lon="6.60798">
        <ele>1236</ele>
        <time>2017-10-09T11:48:28Z</time>
      </trkpt>
      <trkpt lat="43.74053" lon="6.60791">
        <ele>1234</ele>
        <time>2017-10-09T11:48:35Z</time>
      </trkpt>
      <trkpt lat="43.74051" lon="6.6079">
        <ele>1232</ele>
        <time>2017-10-09T11:49:01Z</time>
      </trkpt>
      <trkpt lat="43.74044" lon="6.60805">
        <ele>1224</ele>
        <time>2017-10-09T11:49:16Z</time>
      </trkpt>
      <trkpt lat="43.7404" lon="6.60808">
        <ele>1223</ele>
        <time>2017-10-09T11:49:22Z</time>
      </trkpt>
      <trkpt lat="43.74018" lon="6.60827">
        <ele>1219</ele>
        <time>2017-10-09T11:49:54Z</time>
      </trkpt>
      <trkpt lat="43.74002" lon="6.60846">
        <ele>1216</ele>
        <time>2017-10-09T11:50:22Z</time>
      </trkpt>
      <trkpt lat="43.73998" lon="6.60849">
        <ele>1215</ele>
        <time>2017-10-09T11:50:28Z</time>
      </trkpt>
      <trkpt lat="43.73997" lon="6.60843">
        <ele>1216</ele>
        <time>2017-10-09T11:50:42Z</time>
      </trkpt>
      <trkpt lat="43.73992" lon="6.60845">
        <ele>1218</ele>
        <time>2017-10-09T11:50:48Z</time>
      </trkpt>
      <trkpt lat="43.73989" lon="6.6085">
        <ele>1217</ele>
        <time>2017-10-09T11:50:55Z</time>
      </trkpt>
      <trkpt lat="43.73987" lon="6.60855">
        <ele>1215</ele>
        <time>2017-10-09T11:51:06Z</time>
      </trkpt>
      <trkpt lat="43.73985" lon="6.6086">
        <ele>1214</ele>
        <time>2017-10-09T11:51:13Z</time>
      </trkpt>
      <trkpt lat="43.73983" lon="6.60865">
        <ele>1211</ele>
        <time>2017-10-09T11:51:19Z</time>
      </trkpt>
      <trkpt lat="43.73981" lon="6.6087">
        <ele>1210</ele>
        <time>2017-10-09T11:51:27Z</time>
      </trkpt>
      <trkpt lat="43.73978" lon="6.60874">
        <ele>1210</ele>
        <time>2017-10-09T11:51:35Z</time>
      </trkpt>
      <trkpt lat="43.73972" lon="6.60864">
        <ele>1208</ele>
        <time>2017-10-09T11:51:50Z</time>
      </trkpt>
      <trkpt lat="43.73971" lon="6.60859">
        <ele>1208</ele>
        <time>2017-10-09T11:51:56Z</time>
      </trkpt>
      <trkpt lat="43.73967" lon="6.6086">
        <ele>1205</ele>
        <time>2017-10-09T11:52:15Z</time>
      </trkpt>
      <trkpt lat="43.73963" lon="6.60862">
        <ele>1200</ele>
        <time>2017-10-09T11:52:29Z</time>
      </trkpt>
      <trkpt lat="43.7396" lon="6.60867">
        <ele>1198</ele>
        <time>2017-10-09T11:52:36Z</time>
      </trkpt>
      <trkpt lat="43.73952" lon="6.60882">
        <ele>1191</ele>
        <time>2017-10-09T11:53:00Z</time>
      </trkpt>
      <trkpt lat="43.73941" lon="6.60902">
        <ele>1188</ele>
        <time>2017-10-09T11:53:28Z</time>
      </trkpt>
      <trkpt lat="43.73938" lon="6.60906">
        <ele>1188</ele>
        <time>2017-10-09T11:53:34Z</time>
      </trkpt>
      <trkpt lat="43.73934" lon="6.60906">
        <ele>1187</ele>
        <time>2017-10-09T11:53:42Z</time>
      </trkpt>
      <trkpt lat="43.73933" lon="6.609">
        <ele>1187</ele>
        <time>2017-10-09T11:53:48Z</time>
      </trkpt>
      <trkpt lat="43.73931" lon="6.60895">
        <ele>1185</ele>
        <time>2017-10-09T11:53:57Z</time>
      </trkpt>
      <trkpt lat="43.73927" lon="6.60893">
        <ele>1183</ele>
        <time>2017-10-09T11:54:13Z</time>
      </trkpt>
      <trkpt lat="43.73925" lon="6.60898">
        <ele>1183</ele>
        <time>2017-10-09T11:54:22Z</time>
      </trkpt>
      <trkpt lat="43.73922" lon="6.60903">
        <ele>1178</ele>
        <time>2017-10-09T11:54:30Z</time>
      </trkpt>
      <trkpt lat="43.73919" lon="6.609">
        <ele>1177</ele>
        <time>2017-10-09T11:54:38Z</time>
      </trkpt>
      <trkpt lat="43.73917" lon="6.60894">
        <ele>1177</ele>
        <time>2017-10-09T11:54:44Z</time>
      </trkpt>
      <trkpt lat="43.73913" lon="6.6089">
        <ele>1174</ele>
        <time>2017-10-09T11:54:49Z</time>
      </trkpt>
      <trkpt lat="43.73912" lon="6.60896">
        <ele>1174</ele>
        <time>2017-10-09T11:54:57Z</time>
      </trkpt>
      <trkpt lat="43.73909" lon="6.60908">
        <ele>1171</ele>
        <time>2017-10-09T11:55:11Z</time>
      </trkpt>
      <trkpt lat="43.73905" lon="6.60906">
        <ele>1170</ele>
        <time>2017-10-09T11:55:22Z</time>
      </trkpt>
      <trkpt lat="43.73904" lon="6.609">
        <ele>1169</ele>
        <time>2017-10-09T11:55:28Z</time>
      </trkpt>
      <trkpt lat="43.73902" lon="6.60895">
        <ele>1166</ele>
        <time>2017-10-09T11:55:34Z</time>
      </trkpt>
      <trkpt lat="43.73901" lon="6.60889">
        <ele>1165</ele>
        <time>2017-10-09T11:55:40Z</time>
      </trkpt>
      <trkpt lat="43.73899" lon="6.60884">
        <ele>1164</ele>
        <time>2017-10-09T11:55:45Z</time>
      </trkpt>
      <trkpt lat="43.73894" lon="6.60853">
        <ele>1161</ele>
        <time>2017-10-09T11:56:15Z</time>
      </trkpt>
      <trkpt lat="43.73894" lon="6.60841">
        <ele>1158</ele>
        <time>2017-10-09T11:56:29Z</time>
      </trkpt>
      <trkpt lat="43.73894" lon="6.60834">
        <ele>1158</ele>
        <time>2017-10-09T11:56:34Z</time>
      </trkpt>
      <trkpt lat="43.73893" lon="6.60828">
        <ele>1157</ele>
        <time>2017-10-09T11:56:40Z</time>
      </trkpt>
      <trkpt lat="43.73894" lon="6.60822">
        <ele>1156</ele>
        <time>2017-10-09T11:56:45Z</time>
      </trkpt>
      <trkpt lat="43.73892" lon="6.6081">
        <ele>1152</ele>
        <time>2017-10-09T11:57:12Z</time>
      </trkpt>
      <trkpt lat="43.73893" lon="6.60798">
        <ele>1145</ele>
        <time>2017-10-09T11:57:28Z</time>
      </trkpt>
      <trkpt lat="43.73892" lon="6.60793">
        <ele>1145</ele>
        <time>2017-10-09T11:57:34Z</time>
      </trkpt>
      <trkpt lat="43.73888" lon="6.60792">
        <ele>1147</ele>
        <time>2017-10-09T11:57:40Z</time>
      </trkpt>
      <trkpt lat="43.73882" lon="6.60801">
        <ele>1144</ele>
        <time>2017-10-09T11:57:57Z</time>
      </trkpt>
      <trkpt lat="43.73879" lon="6.60806">
        <ele>1143</ele>
        <time>2017-10-09T11:58:06Z</time>
      </trkpt>
      <trkpt lat="43.73876" lon="6.60811">
        <ele>1140</ele>
        <time>2017-10-09T11:58:13Z</time>
      </trkpt>
      <trkpt lat="43.73871" lon="6.60821">
        <ele>1136</ele>
        <time>2017-10-09T11:58:30Z</time>
      </trkpt>
      <trkpt lat="43.73865" lon="6.60831">
        <ele>1133</ele>
        <time>2017-10-09T11:58:44Z</time>
      </trkpt>
      <trkpt lat="43.73861" lon="6.60829">
        <ele>1131</ele>
        <time>2017-10-09T11:58:52Z</time>
      </trkpt>
      <trkpt lat="43.73857" lon="6.60819">
        <ele>1131</ele>
        <time>2017-10-09T11:59:04Z</time>
      </trkpt>
      <trkpt lat="43.73854" lon="6.60814">
        <ele>1130</ele>
        <time>2017-10-09T11:59:10Z</time>
      </trkpt>
      <trkpt lat="43.73851" lon="6.60818">
        <ele>1130</ele>
        <time>2017-10-09T11:59:16Z</time>
      </trkpt>
      <trkpt lat="43.73849" lon="6.6083">
        <ele>1129</ele>
        <time>2017-10-09T11:59:26Z</time>
      </trkpt>
      <trkpt lat="43.73848" lon="6.60836">
        <ele>1126</ele>
        <time>2017-10-09T11:59:35Z</time>
      </trkpt>
      <trkpt lat="43.73847" lon="6.60842">
        <ele>1125</ele>
        <time>2017-10-09T11:59:47Z</time>
      </trkpt>
      <trkpt lat="43.73843" lon="6.60845">
        <ele>1123</ele>
        <time>2017-10-09T11:59:53Z</time>
      </trkpt>
      <trkpt lat="43.73841" lon="6.6084">
        <ele>1122</ele>
        <time>2017-10-09T12:00:03Z</time>
      </trkpt>
      <trkpt lat="43.73838" lon="6.60835">
        <ele>1121</ele>
        <time>2017-10-09T12:00:08Z</time>
      </trkpt>
      <trkpt lat="43.73835" lon="6.60824">
        <ele>1120</ele>
        <time>2017-10-09T12:00:19Z</time>
      </trkpt>
      <trkpt lat="43.73831" lon="6.60827">
        <ele>1119</ele>
        <time>2017-10-09T12:00:27Z</time>
      </trkpt>
      <trkpt lat="43.73829" lon="6.60833">
        <ele>1117</ele>
        <time>2017-10-09T12:00:34Z</time>
      </trkpt>
      <trkpt lat="43.7382" lon="6.60861">
        <ele>1108</ele>
        <time>2017-10-09T12:01:06Z</time>
      </trkpt>
      <trkpt lat="43.73819" lon="6.60867">
        <ele>1105</ele>
        <time>2017-10-09T12:01:12Z</time>
      </trkpt>
      <trkpt lat="43.73817" lon="6.60875">
        <ele>1103</ele>
        <time>2017-10-09T12:01:18Z</time>
      </trkpt>
      <trkpt lat="43.73817" lon="6.60883">
        <ele>1102</ele>
        <time>2017-10-09T12:01:24Z</time>
      </trkpt>
      <trkpt lat="43.73808" lon="6.60915">
        <ele>1100</ele>
        <time>2017-10-09T12:01:55Z</time>
      </trkpt>
      <trkpt lat="43.73799" lon="6.60959">
        <ele>1100</ele>
        <time>2017-10-09T12:02:27Z</time>
      </trkpt>
      <trkpt lat="43.73798" lon="6.60965">
        <ele>1098</ele>
        <time>2017-10-09T12:02:35Z</time>
      </trkpt>
      <trkpt lat="43.73794" lon="6.60977">
        <ele>1096</ele>
        <time>2017-10-09T12:02:48Z</time>
      </trkpt>
      <trkpt lat="43.73793" lon="6.60984">
        <ele>1095</ele>
        <time>2017-10-09T12:02:54Z</time>
      </trkpt>
      <trkpt lat="43.73787" lon="6.60994">
        <ele>1095</ele>
        <time>2017-10-09T12:03:02Z</time>
      </trkpt>
      <trkpt lat="43.73781" lon="6.61017">
        <ele>1095</ele>
        <time>2017-10-09T12:03:21Z</time>
      </trkpt>
      <trkpt lat="43.73778" lon="6.61021">
        <ele>1094</ele>
        <time>2017-10-09T12:03:27Z</time>
      </trkpt>
      <trkpt lat="43.7378" lon="6.61038">
        <ele>1091</ele>
        <time>2017-10-09T12:03:41Z</time>
      </trkpt>
      <trkpt lat="43.73779" lon="6.61044">
        <ele>1090</ele>
        <time>2017-10-09T12:03:45Z</time>
      </trkpt>
      <trkpt lat="43.73776" lon="6.61049">
        <ele>1088</ele>
        <time>2017-10-09T12:03:51Z</time>
      </trkpt>
      <trkpt lat="43.73777" lon="6.61097">
        <ele>1080</ele>
        <time>2017-10-09T12:04:29Z</time>
      </trkpt>
      <trkpt lat="43.73774" lon="6.61102">
        <ele>1078</ele>
        <time>2017-10-09T12:04:35Z</time>
      </trkpt>
      <trkpt lat="43.73773" lon="6.6111">
        <ele>1077</ele>
        <time>2017-10-09T12:04:43Z</time>
      </trkpt>
      <trkpt lat="43.73769" lon="6.61114">
        <ele>1075</ele>
        <time>2017-10-09T12:04:48Z</time>
      </trkpt>
      <trkpt lat="43.73767" lon="6.61118">
        <ele>1074</ele>
        <time>2017-10-09T12:04:54Z</time>
      </trkpt>
      <trkpt lat="43.7376" lon="6.61127">
        <ele>1071</ele>
        <time>2017-10-09T12:05:06Z</time>
      </trkpt>
      <trkpt lat="43.73758" lon="6.61133">
        <ele>1070</ele>
        <time>2017-10-09T12:05:14Z</time>
      </trkpt>
      <trkpt lat="43.73755" lon="6.61138">
        <ele>1069</ele>
        <time>2017-10-09T12:05:19Z</time>
      </trkpt>
      <trkpt lat="43.73751" lon="6.61142">
        <ele>1069</ele>
        <time>2017-10-09T12:05:24Z</time>
      </trkpt>
      <trkpt lat="43.73748" lon="6.6114">
        <ele>1069</ele>
        <time>2017-10-09T12:05:31Z</time>
      </trkpt>
      <trkpt lat="43.73741" lon="6.61129">
        <ele>1070</ele>
        <time>2017-10-09T12:05:39Z</time>
      </trkpt>
      <trkpt lat="43.73738" lon="6.61134">
        <ele>1068</ele>
        <time>2017-10-09T12:05:45Z</time>
      </trkpt>
      <trkpt lat="43.73734" lon="6.61144">
        <ele>1064</ele>
        <time>2017-10-09T12:06:02Z</time>
      </trkpt>
      <trkpt lat="43.73728" lon="6.61145">
        <ele>1064</ele>
        <time>2017-10-09T12:06:10Z</time>
      </trkpt>
      <trkpt lat="43.73724" lon="6.61144">
        <ele>1063</ele>
        <time>2017-10-09T12:06:15Z</time>
      </trkpt>
      <trkpt lat="43.7372" lon="6.61142">
        <ele>1061</ele>
        <time>2017-10-09T12:06:22Z</time>
      </trkpt>
      <trkpt lat="43.73712" lon="6.61141">
        <ele>1060</ele>
        <time>2017-10-09T12:06:31Z</time>
      </trkpt>
      <trkpt lat="43.73708" lon="6.61144">
        <ele>1059</ele>
        <time>2017-10-09T12:06:36Z</time>
      </trkpt>
      <trkpt lat="43.73706" lon="6.61152">
        <ele>1058</ele>
        <time>2017-10-09T12:06:42Z</time>
      </trkpt>
      <trkpt lat="43.73705" lon="6.61159">
        <ele>1056</ele>
        <time>2017-10-09T12:06:47Z</time>
      </trkpt>
      <trkpt lat="43.73703" lon="6.61167">
        <ele>1054</ele>
        <time>2017-10-09T12:06:53Z</time>
      </trkpt>
      <trkpt lat="43.73701" lon="6.6118">
        <ele>1054</ele>
        <time>2017-10-09T12:07:04Z</time>
      </trkpt>
      <trkpt lat="43.737" lon="6.612">
        <ele>1055</ele>
        <time>2017-10-09T12:07:16Z</time>
      </trkpt>
      <trkpt lat="43.73699" lon="6.61207">
        <ele>1055</ele>
        <time>2017-10-09T12:07:21Z</time>
      </trkpt>
      <trkpt lat="43.73698" lon="6.61214">
        <ele>1055</ele>
        <time>2017-10-09T12:07:27Z</time>
      </trkpt>
      <trkpt lat="43.73698" lon="6.6122">
        <ele>1053</ele>
        <time>2017-10-09T12:07:34Z</time>
      </trkpt>
      <trkpt lat="43.73698" lon="6.61226">
        <ele>1054</ele>
        <time>2017-10-09T12:07:40Z</time>
      </trkpt>
      <trkpt lat="43.73697" lon="6.61226">
        <ele>1057</ele>
        <time>2017-10-09T12:16:42Z</time>
      </trkpt>
      <trkpt lat="43.73697" lon="6.61223">
        <ele>1055</ele>
        <time>2017-10-09T12:21:59Z</time>
      </trkpt>
      <trkpt lat="43.73698" lon="6.61217">
        <ele>1055</ele>
        <time>2017-10-09T12:22:16Z</time>
      </trkpt>
      <trkpt lat="43.73699" lon="6.61197">
        <ele>1031</ele>
        <time>2017-10-09T12:22:33Z</time>
      </trkpt>
      <trkpt lat="43.73699" lon="6.61187">
        <ele>1032</ele>
        <time>2017-10-09T12:22:40Z</time>
      </trkpt>
      <trkpt lat="43.73698" lon="6.61182">
        <ele>1043</ele>
        <time>2017-10-09T12:22:45Z</time>
      </trkpt>
      <trkpt lat="43.73694" lon="6.6118">
        <ele>1047</ele>
        <time>2017-10-09T12:22:49Z</time>
      </trkpt>
      <trkpt lat="43.73689" lon="6.61183">
        <ele>1050</ele>
        <time>2017-10-09T12:22:56Z</time>
      </trkpt>
      <trkpt lat="43.73686" lon="6.61187">
        <ele>1046</ele>
        <time>2017-10-09T12:23:02Z</time>
      </trkpt>
      <trkpt lat="43.73684" lon="6.61193">
        <ele>1049</ele>
        <time>2017-10-09T12:23:10Z</time>
      </trkpt>
      <trkpt lat="43.73681" lon="6.612">
        <ele>1048</ele>
        <time>2017-10-09T12:23:18Z</time>
      </trkpt>
      <trkpt lat="43.73676" lon="6.61207">
        <ele>1041</ele>
        <time>2017-10-09T12:23:26Z</time>
      </trkpt>
      <trkpt lat="43.73674" lon="6.61215">
        <ele>1028</ele>
        <time>2017-10-09T12:23:32Z</time>
      </trkpt>
      <trkpt lat="43.73665" lon="6.61226">
        <ele>1028</ele>
        <time>2017-10-09T12:23:47Z</time>
      </trkpt>
      <trkpt lat="43.73658" lon="6.61233">
        <ele>1041</ele>
        <time>2017-10-09T12:23:56Z</time>
      </trkpt>
      <trkpt lat="43.7365" lon="6.6124">
        <ele>1041</ele>
        <time>2017-10-09T12:24:06Z</time>
      </trkpt>
      <trkpt lat="43.73645" lon="6.61242">
        <ele>1041</ele>
        <time>2017-10-09T12:24:12Z</time>
      </trkpt>
      <trkpt lat="43.73628" lon="6.61252">
        <ele>1040</ele>
        <time>2017-10-09T12:24:28Z</time>
      </trkpt>
      <trkpt lat="43.73617" lon="6.61272">
        <ele>1036</ele>
        <time>2017-10-09T12:24:46Z</time>
      </trkpt>
      <trkpt lat="43.73616" lon="6.61283">
        <ele>1035</ele>
        <time>2017-10-09T12:24:53Z</time>
      </trkpt>
      <trkpt lat="43.7361" lon="6.61293">
        <ele>1036</ele>
        <time>2017-10-09T12:25:04Z</time>
      </trkpt>
      <trkpt lat="43.73608" lon="6.61299">
        <ele>1035</ele>
        <time>2017-10-09T12:25:08Z</time>
      </trkpt>
      <trkpt lat="43.73607" lon="6.61314">
        <ele>1036</ele>
        <time>2017-10-09T12:25:18Z</time>
      </trkpt>
      <trkpt lat="43.73614" lon="6.61344">
        <ele>1048</ele>
        <time>2017-10-09T12:25:42Z</time>
      </trkpt>
      <trkpt lat="43.73612" lon="6.61354">
        <ele>1049</ele>
        <time>2017-10-09T12:25:47Z</time>
      </trkpt>
      <trkpt lat="43.73615" lon="6.61368">
        <ele>1048</ele>
        <time>2017-10-09T12:25:56Z</time>
      </trkpt>
      <trkpt lat="43.73621" lon="6.614">
        <ele>1047</ele>
        <time>2017-10-09T12:26:14Z</time>
      </trkpt>
      <trkpt lat="43.73622" lon="6.61417">
        <ele>1048</ele>
        <time>2017-10-09T12:26:24Z</time>
      </trkpt>
      <trkpt lat="43.73627" lon="6.61428">
        <ele>1045</ele>
        <time>2017-10-09T12:26:34Z</time>
      </trkpt>
      <trkpt lat="43.73627" lon="6.61438">
        <ele>1045</ele>
        <time>2017-10-09T12:26:40Z</time>
      </trkpt>
      <trkpt lat="43.73627" lon="6.61447">
        <ele>1044</ele>
        <time>2017-10-09T12:26:49Z</time>
      </trkpt>
      <trkpt lat="43.73631" lon="6.61469">
        <ele>1040</ele>
        <time>2017-10-09T12:27:02Z</time>
      </trkpt>
      <trkpt lat="43.7363" lon="6.61476">
        <ele>1038</ele>
        <time>2017-10-09T12:27:17Z</time>
      </trkpt>
      <trkpt lat="43.73635" lon="6.6149">
        <ele>1020</ele>
        <time>2017-10-09T12:27:34Z</time>
      </trkpt>
      <trkpt lat="43.73636" lon="6.61502">
        <ele>1012</ele>
        <time>2017-10-09T12:27:45Z</time>
      </trkpt>
      <trkpt lat="43.73634" lon="6.61512">
        <ele>1024</ele>
        <time>2017-10-09T12:27:48Z</time>
      </trkpt>
      <trkpt lat="43.73634" lon="6.61522">
        <ele>1041</ele>
        <time>2017-10-09T12:27:54Z</time>
      </trkpt>
      <trkpt lat="43.73638" lon="6.61535">
        <ele>1044</ele>
        <time>2017-10-09T12:28:05Z</time>
      </trkpt>
      <trkpt lat="43.73641" lon="6.6155">
        <ele>1046</ele>
        <time>2017-10-09T12:28:17Z</time>
      </trkpt>
      <trkpt lat="43.7364" lon="6.61573">
        <ele>1046</ele>
        <time>2017-10-09T12:28:28Z</time>
      </trkpt>
      <trkpt lat="43.73639" lon="6.61585">
        <ele>1047</ele>
        <time>2017-10-09T12:28:34Z</time>
      </trkpt>
      <trkpt lat="43.73639" lon="6.61597">
        <ele>1044</ele>
        <time>2017-10-09T12:28:40Z</time>
      </trkpt>
      <trkpt lat="43.73638" lon="6.61607">
        <ele>1043</ele>
        <time>2017-10-09T12:28:44Z</time>
      </trkpt>
      <trkpt lat="43.73633" lon="6.61614">
        <ele>1041</ele>
        <time>2017-10-09T12:28:50Z</time>
      </trkpt>
      <trkpt lat="43.73638" lon="6.6163">
        <ele>1042</ele>
        <time>2017-10-09T12:29:03Z</time>
      </trkpt>
      <trkpt lat="43.73637" lon="6.6164">
        <ele>1040</ele>
        <time>2017-10-09T12:29:08Z</time>
      </trkpt>
      <trkpt lat="43.73639" lon="6.6165">
        <ele>1044</ele>
        <time>2017-10-09T12:29:15Z</time>
      </trkpt>
      <trkpt lat="43.7364" lon="6.61671">
        <ele>1041</ele>
        <time>2017-10-09T12:29:26Z</time>
      </trkpt>
      <trkpt lat="43.73637" lon="6.61679">
        <ele>1039</ele>
        <time>2017-10-09T12:29:32Z</time>
      </trkpt>
      <trkpt lat="43.73635" lon="6.61691">
        <ele>1043</ele>
        <time>2017-10-09T12:29:44Z</time>
      </trkpt>
      <trkpt lat="43.73633" lon="6.61707">
        <ele>1046</ele>
        <time>2017-10-09T12:29:55Z</time>
      </trkpt>
      <trkpt lat="43.73628" lon="6.61735">
        <ele>1047</ele>
        <time>2017-10-09T12:30:16Z</time>
      </trkpt>
      <trkpt lat="43.73627" lon="6.61746">
        <ele>1044</ele>
        <time>2017-10-09T12:30:22Z</time>
      </trkpt>
      <trkpt lat="43.73625" lon="6.61756">
        <ele>1046</ele>
        <time>2017-10-09T12:30:28Z</time>
      </trkpt>
      <trkpt lat="43.73623" lon="6.61765">
        <ele>1022</ele>
        <time>2017-10-09T12:30:33Z</time>
      </trkpt>
      <trkpt lat="43.73617" lon="6.61783">
        <ele>1016</ele>
        <time>2017-10-09T12:30:38Z</time>
      </trkpt>
      <trkpt lat="43.73616" lon="6.61794">
        <ele>1003</ele>
        <time>2017-10-09T12:30:45Z</time>
      </trkpt>
      <trkpt lat="43.73616" lon="6.61802">
        <ele>1008</ele>
        <time>2017-10-09T12:30:50Z</time>
      </trkpt>
      <trkpt lat="43.73612" lon="6.61811">
        <ele>1010</ele>
        <time>2017-10-09T12:30:57Z</time>
      </trkpt>
      <trkpt lat="43.73613" lon="6.61819">
        <ele>1019</ele>
        <time>2017-10-09T12:31:02Z</time>
      </trkpt>
      <trkpt lat="43.73611" lon="6.61828">
        <ele>1018</ele>
        <time>2017-10-09T12:31:09Z</time>
      </trkpt>
      <trkpt lat="43.73607" lon="6.61835">
        <ele>1011</ele>
        <time>2017-10-09T12:31:14Z</time>
      </trkpt>
      <trkpt lat="43.73605" lon="6.61844">
        <ele>1008</ele>
        <time>2017-10-09T12:31:20Z</time>
      </trkpt>
      <trkpt lat="43.73607" lon="6.61853">
        <ele>1004</ele>
        <time>2017-10-09T12:31:30Z</time>
      </trkpt>
      <trkpt lat="43.73605" lon="6.61859">
        <ele>1010</ele>
        <time>2017-10-09T12:31:34Z</time>
      </trkpt>
      <trkpt lat="43.73604" lon="6.61867">
        <ele>1028</ele>
        <time>2017-10-09T12:31:49Z</time>
      </trkpt>
      <trkpt lat="43.736" lon="6.61888">
        <ele>1026</ele>
        <time>2017-10-09T12:32:07Z</time>
      </trkpt>
      <trkpt lat="43.73598" lon="6.61896">
        <ele>1021</ele>
        <time>2017-10-09T12:32:14Z</time>
      </trkpt>
      <trkpt lat="43.73601" lon="6.61907">
        <ele>1008</ele>
        <time>2017-10-09T12:32:31Z</time>
      </trkpt>
      <trkpt lat="43.73606" lon="6.61917">
        <ele>1003</ele>
        <time>2017-10-09T12:32:41Z</time>
      </trkpt>
      <trkpt lat="43.73609" lon="6.61928">
        <ele>1000</ele>
        <time>2017-10-09T12:32:51Z</time>
      </trkpt>
      <trkpt lat="43.73603" lon="6.61955">
        <ele>1009</ele>
        <time>2017-10-09T12:33:21Z</time>
      </trkpt>
      <trkpt lat="43.73608" lon="6.61964">
        <ele>1008</ele>
        <time>2017-10-09T12:33:41Z</time>
      </trkpt>
      <trkpt lat="43.73615" lon="6.61966">
        <ele>1007</ele>
        <time>2017-10-09T12:33:48Z</time>
      </trkpt>
      <trkpt lat="43.73631" lon="6.61991">
        <ele>1005</ele>
        <time>2017-10-09T12:34:24Z</time>
      </trkpt>
      <trkpt lat="43.73636" lon="6.61998">
        <ele>1000</ele>
        <time>2017-10-09T12:34:37Z</time>
      </trkpt>
      <trkpt lat="43.7365" lon="6.62032">
        <ele>997</ele>
        <time>2017-10-09T12:34:59Z</time>
      </trkpt>
      <trkpt lat="43.73654" lon="6.62042">
        <ele>993</ele>
        <time>2017-10-09T12:35:08Z</time>
      </trkpt>
      <trkpt lat="43.73656" lon="6.62054">
        <ele>993</ele>
        <time>2017-10-09T12:35:21Z</time>
      </trkpt>
      <trkpt lat="43.73659" lon="6.62065">
        <ele>994</ele>
        <time>2017-10-09T12:35:30Z</time>
      </trkpt>
      <trkpt lat="43.73664" lon="6.62087">
        <ele>997</ele>
        <time>2017-10-09T12:35:45Z</time>
      </trkpt>
      <trkpt lat="43.73672" lon="6.62098">
        <ele>996</ele>
        <time>2017-10-09T12:35:57Z</time>
      </trkpt>
      <trkpt lat="43.73676" lon="6.62113">
        <ele>990</ele>
        <time>2017-10-09T12:36:12Z</time>
      </trkpt>
      <trkpt lat="43.7368" lon="6.62137">
        <ele>981</ele>
        <time>2017-10-09T12:36:26Z</time>
      </trkpt>
      <trkpt lat="43.73689" lon="6.62155">
        <ele>982</ele>
        <time>2017-10-09T12:36:36Z</time>
      </trkpt>
      <trkpt lat="43.73693" lon="6.6216">
        <ele>983</ele>
        <time>2017-10-09T12:36:40Z</time>
      </trkpt>
      <trkpt lat="43.73699" lon="6.6218">
        <ele>984</ele>
        <time>2017-10-09T12:36:50Z</time>
      </trkpt>
      <trkpt lat="43.73704" lon="6.62192">
        <ele>985</ele>
        <time>2017-10-09T12:36:59Z</time>
      </trkpt>
      <trkpt lat="43.7371" lon="6.62214">
        <ele>983</ele>
        <time>2017-10-09T12:37:14Z</time>
      </trkpt>
      <trkpt lat="43.73711" lon="6.62223">
        <ele>980</ele>
        <time>2017-10-09T12:37:20Z</time>
      </trkpt>
      <trkpt lat="43.73714" lon="6.62232">
        <ele>981</ele>
        <time>2017-10-09T12:37:27Z</time>
      </trkpt>
      <trkpt lat="43.7372" lon="6.62239">
        <ele>984</ele>
        <time>2017-10-09T12:37:35Z</time>
      </trkpt>
      <trkpt lat="43.73725" lon="6.62297">
        <ele>983</ele>
        <time>2017-10-09T12:38:20Z</time>
      </trkpt>
      <trkpt lat="43.73729" lon="6.62319">
        <ele>1033</ele>
        <time>2017-10-09T12:38:35Z</time>
      </trkpt>
      <trkpt lat="43.7373" lon="6.62337">
        <ele>1037</ele>
        <time>2017-10-09T12:38:45Z</time>
      </trkpt>
      <trkpt lat="43.73728" lon="6.62347">
        <ele>1031</ele>
        <time>2017-10-09T12:38:53Z</time>
      </trkpt>
      <trkpt lat="43.73723" lon="6.62354">
        <ele>1024</ele>
        <time>2017-10-09T12:39:00Z</time>
      </trkpt>
      <trkpt lat="43.73718" lon="6.62363">
        <ele>1019</ele>
        <time>2017-10-09T12:39:13Z</time>
      </trkpt>
      <trkpt lat="43.73715" lon="6.62384">
        <ele>1025</ele>
        <time>2017-10-09T12:39:24Z</time>
      </trkpt>
      <trkpt lat="43.73712" lon="6.62391">
        <ele>1022</ele>
        <time>2017-10-09T12:39:29Z</time>
      </trkpt>
      <trkpt lat="43.73707" lon="6.62396">
        <ele>1018</ele>
        <time>2017-10-09T12:39:34Z</time>
      </trkpt>
      <trkpt lat="43.73701" lon="6.62398">
        <ele>1014</ele>
        <time>2017-10-09T12:39:39Z</time>
      </trkpt>
      <trkpt lat="43.737" lon="6.62406">
        <ele>988</ele>
        <time>2017-10-09T12:39:45Z</time>
      </trkpt>
      <trkpt lat="43.73701" lon="6.62416">
        <ele>1007</ele>
        <time>2017-10-09T12:39:54Z</time>
      </trkpt>
      <trkpt lat="43.73704" lon="6.62425">
        <ele>986</ele>
        <time>2017-10-09T12:40:01Z</time>
      </trkpt>
      <trkpt lat="43.73711" lon="6.62456">
        <ele>970</ele>
        <time>2017-10-09T12:40:23Z</time>
      </trkpt>
      <trkpt lat="43.7371" lon="6.6247">
        <ele>973</ele>
        <time>2017-10-09T12:40:36Z</time>
      </trkpt>
      <trkpt lat="43.73706" lon="6.62487">
        <ele>972</ele>
        <time>2017-10-09T12:41:01Z</time>
      </trkpt>
      <trkpt lat="43.73702" lon="6.62503">
        <ele>970</ele>
        <time>2017-10-09T12:41:08Z</time>
      </trkpt>
      <trkpt lat="43.73697" lon="6.62511">
        <ele>967</ele>
        <time>2017-10-09T12:41:12Z</time>
      </trkpt>
      <trkpt lat="43.73691" lon="6.6252">
        <ele>966</ele>
        <time>2017-10-09T12:41:18Z</time>
      </trkpt>
    </trkseg>
  </trk>
</gpx>